<?xml version="1.0" encoding="utf-8"?>
<gpx xmlns:xsi="http://www.w3.org/2001/XMLSchema-instance" xmlns:xsd="http://www.w3.org/2001/XMLSchema" version="1.1" creator="Shapelink.com" xmlns="http://www.topografix.com/GPX/1/1" xmlns:gpxtpx="http://www.garmin.com/xmlschemas/TrackPointExtension/v1">
  <metadata>
    <name>Rullskidor - Klassisk 10.80 km, 2012-08-03</name>
    <desc></desc>
    <author><name>Alexander Engvall</name></author> 
    <time>2012-08-03T20:10:10Z</time>
  </metadata>
  <trk>
    <name>Rullskidor - Klassisk 10.80 km, 2012-08-03</name>
    <trkseg>
      <trkpt lat="59.4606257" lon="17.803722">
        <ele>0</ele>
        <time>2012-08-03T20:10:10Z</time>
      </trkpt>
      <trkpt lat="59.4604687" lon="17.8036562">
        <ele>0</ele>
        <time>2012-08-03T20:10:14Z</time>
      </trkpt>
      <trkpt lat="59.4602522" lon="17.8036316">
        <ele>0</ele>
        <time>2012-08-03T20:10:18Z</time>
      </trkpt>
      <trkpt lat="59.4600251" lon="17.8035651">
        <ele>0</ele>
        <time>2012-08-03T20:10:22Z</time>
      </trkpt>
      <trkpt lat="59.4598335" lon="17.8034947">
        <ele>0</ele>
        <time>2012-08-03T20:10:26Z</time>
      </trkpt>
      <trkpt lat="59.4596595" lon="17.8034731">
        <ele>0</ele>
        <time>2012-08-03T20:10:30Z</time>
      </trkpt>
      <trkpt lat="59.4596165" lon="17.80349">
        <ele>0</ele>
        <time>2012-08-03T20:10:31Z</time>
      </trkpt>
      <trkpt lat="59.459472" lon="17.8035835">
        <ele>0</ele>
        <time>2012-08-03T20:10:35Z</time>
      </trkpt>
      <trkpt lat="59.4594373" lon="17.8036061">
        <ele>0</ele>
        <time>2012-08-03T20:10:36Z</time>
      </trkpt>
      <trkpt lat="59.4592549" lon="17.8038277">
        <ele>0</ele>
        <time>2012-08-03T20:10:42Z</time>
      </trkpt>
      <trkpt lat="59.4590881" lon="17.8040382">
        <ele>0</ele>
        <time>2012-08-03T20:10:47Z</time>
      </trkpt>
      <trkpt lat="59.4589436" lon="17.8043237">
        <ele>0</ele>
        <time>2012-08-03T20:10:52Z</time>
      </trkpt>
      <trkpt lat="59.4588401" lon="17.8045081">
        <ele>0</ele>
        <time>2012-08-03T20:10:55Z</time>
      </trkpt>
      <trkpt lat="59.4587992" lon="17.8045359">
        <ele>0</ele>
        <time>2012-08-03T20:10:56Z</time>
      </trkpt>
      <trkpt lat="59.4585985" lon="17.8044836">
        <ele>0</ele>
        <time>2012-08-03T20:11:01Z</time>
      </trkpt>
      <trkpt lat="59.4585515" lon="17.8044655">
        <ele>0</ele>
        <time>2012-08-03T20:11:02Z</time>
      </trkpt>
      <trkpt lat="59.4583657" lon="17.8044023">
        <ele>0</ele>
        <time>2012-08-03T20:11:05Z</time>
      </trkpt>
      <trkpt lat="59.4581691" lon="17.8043939">
        <ele>0</ele>
        <time>2012-08-03T20:11:08Z</time>
      </trkpt>
      <trkpt lat="59.4580485" lon="17.8043091">
        <ele>0</ele>
        <time>2012-08-03T20:11:10Z</time>
      </trkpt>
      <trkpt lat="59.4579868" lon="17.8042667">
        <ele>0</ele>
        <time>2012-08-03T20:11:11Z</time>
      </trkpt>
      <trkpt lat="59.4578043" lon="17.8041834">
        <ele>0</ele>
        <time>2012-08-03T20:11:14Z</time>
      </trkpt>
      <trkpt lat="59.457601" lon="17.8041113">
        <ele>0</ele>
        <time>2012-08-03T20:11:17Z</time>
      </trkpt>
      <trkpt lat="59.4573765" lon="17.8040943">
        <ele>0</ele>
        <time>2012-08-03T20:11:20Z</time>
      </trkpt>
      <trkpt lat="59.4572389" lon="17.8040469">
        <ele>0</ele>
        <time>2012-08-03T20:11:22Z</time>
      </trkpt>
      <trkpt lat="59.457181" lon="17.8039957">
        <ele>0</ele>
        <time>2012-08-03T20:11:23Z</time>
      </trkpt>
      <trkpt lat="59.4569729" lon="17.8038108">
        <ele>0</ele>
        <time>2012-08-03T20:11:27Z</time>
      </trkpt>
      <trkpt lat="59.4569182" lon="17.803751">
        <ele>0</ele>
        <time>2012-08-03T20:11:28Z</time>
      </trkpt>
      <trkpt lat="59.4568021" lon="17.8036338">
        <ele>0</ele>
        <time>2012-08-03T20:11:30Z</time>
      </trkpt>
      <trkpt lat="59.4567477" lon="17.8035969">
        <ele>0</ele>
        <time>2012-08-03T20:11:31Z</time>
      </trkpt>
      <trkpt lat="59.4566022" lon="17.8034906">
        <ele>0</ele>
        <time>2012-08-03T20:11:34Z</time>
      </trkpt>
      <trkpt lat="59.4564516" lon="17.8033818">
        <ele>0</ele>
        <time>2012-08-03T20:11:37Z</time>
      </trkpt>
      <trkpt lat="59.4564054" lon="17.8033395">
        <ele>0</ele>
        <time>2012-08-03T20:11:38Z</time>
      </trkpt>
      <trkpt lat="59.4562505" lon="17.8032509">
        <ele>0</ele>
        <time>2012-08-03T20:11:41Z</time>
      </trkpt>
      <trkpt lat="59.4561946" lon="17.803242">
        <ele>0</ele>
        <time>2012-08-03T20:11:42Z</time>
      </trkpt>
      <trkpt lat="59.4560117" lon="17.8032931">
        <ele>0</ele>
        <time>2012-08-03T20:11:45Z</time>
      </trkpt>
      <trkpt lat="59.4559499" lon="17.8033171">
        <ele>0</ele>
        <time>2012-08-03T20:11:46Z</time>
      </trkpt>
      <trkpt lat="59.45579" lon="17.8034343">
        <ele>0</ele>
        <time>2012-08-03T20:11:49Z</time>
      </trkpt>
      <trkpt lat="59.455745" lon="17.8034818">
        <ele>0</ele>
        <time>2012-08-03T20:11:50Z</time>
      </trkpt>
      <trkpt lat="59.4556082" lon="17.8036249">
        <ele>0</ele>
        <time>2012-08-03T20:11:53Z</time>
      </trkpt>
      <trkpt lat="59.4555697" lon="17.8036711">
        <ele>0</ele>
        <time>2012-08-03T20:11:54Z</time>
      </trkpt>
      <trkpt lat="59.4554555" lon="17.803834">
        <ele>0</ele>
        <time>2012-08-03T20:11:57Z</time>
      </trkpt>
      <trkpt lat="59.4552968" lon="17.804072">
        <ele>0</ele>
        <time>2012-08-03T20:12:01Z</time>
      </trkpt>
      <trkpt lat="59.455084" lon="17.8042001">
        <ele>0</ele>
        <time>2012-08-03T20:12:06Z</time>
      </trkpt>
      <trkpt lat="59.4550305" lon="17.8042519">
        <ele>0</ele>
        <time>2012-08-03T20:12:07Z</time>
      </trkpt>
      <trkpt lat="59.45494" lon="17.8042884">
        <ele>0</ele>
        <time>2012-08-03T20:12:10Z</time>
      </trkpt>
      <trkpt lat="59.4549082" lon="17.8042826">
        <ele>0</ele>
        <time>2012-08-03T20:12:11Z</time>
      </trkpt>
      <trkpt lat="59.4548476" lon="17.8043179">
        <ele>0</ele>
        <time>2012-08-03T20:12:14Z</time>
      </trkpt>
      <trkpt lat="59.4547282" lon="17.8044397">
        <ele>0</ele>
        <time>2012-08-03T20:12:19Z</time>
      </trkpt>
      <trkpt lat="59.454646" lon="17.8045521">
        <ele>0</ele>
        <time>2012-08-03T20:12:22Z</time>
      </trkpt>
      <trkpt lat="59.4545778" lon="17.804638">
        <ele>0</ele>
        <time>2012-08-03T20:12:24Z</time>
      </trkpt>
      <trkpt lat="59.4544235" lon="17.8048596">
        <ele>0</ele>
        <time>2012-08-03T20:12:30Z</time>
      </trkpt>
      <trkpt lat="59.4542593" lon="17.805126">
        <ele>0</ele>
        <time>2012-08-03T20:12:35Z</time>
      </trkpt>
      <trkpt lat="59.4541418" lon="17.8053983">
        <ele>0</ele>
        <time>2012-08-03T20:12:39Z</time>
      </trkpt>
      <trkpt lat="59.4541105" lon="17.8054633">
        <ele>0</ele>
        <time>2012-08-03T20:12:40Z</time>
      </trkpt>
      <trkpt lat="59.4539203" lon="17.8057243">
        <ele>0</ele>
        <time>2012-08-03T20:12:45Z</time>
      </trkpt>
      <trkpt lat="59.4537936" lon="17.8058792">
        <ele>0</ele>
        <time>2012-08-03T20:12:48Z</time>
      </trkpt>
      <trkpt lat="59.4537553" lon="17.8059317">
        <ele>0</ele>
        <time>2012-08-03T20:12:49Z</time>
      </trkpt>
      <trkpt lat="59.4536025" lon="17.8061853">
        <ele>0</ele>
        <time>2012-08-03T20:12:53Z</time>
      </trkpt>
      <trkpt lat="59.4535554" lon="17.8062549">
        <ele>0</ele>
        <time>2012-08-03T20:12:54Z</time>
      </trkpt>
      <trkpt lat="59.4534147" lon="17.8064382">
        <ele>0</ele>
        <time>2012-08-03T20:12:57Z</time>
      </trkpt>
      <trkpt lat="59.453318" lon="17.8065388">
        <ele>0</ele>
        <time>2012-08-03T20:12:59Z</time>
      </trkpt>
      <trkpt lat="59.4532715" lon="17.8066044">
        <ele>0</ele>
        <time>2012-08-03T20:13:00Z</time>
      </trkpt>
      <trkpt lat="59.4532295" lon="17.8066529">
        <ele>0</ele>
        <time>2012-08-03T20:13:01Z</time>
      </trkpt>
      <trkpt lat="59.4531503" lon="17.8067426">
        <ele>0</ele>
        <time>2012-08-03T20:13:03Z</time>
      </trkpt>
      <trkpt lat="59.4530745" lon="17.8068433">
        <ele>0</ele>
        <time>2012-08-03T20:13:05Z</time>
      </trkpt>
      <trkpt lat="59.4530321" lon="17.8069111">
        <ele>0</ele>
        <time>2012-08-03T20:13:06Z</time>
      </trkpt>
      <trkpt lat="59.4529197" lon="17.8070784">
        <ele>0</ele>
        <time>2012-08-03T20:13:09Z</time>
      </trkpt>
      <trkpt lat="59.452839" lon="17.8071737">
        <ele>0</ele>
        <time>2012-08-03T20:13:11Z</time>
      </trkpt>
      <trkpt lat="59.4527207" lon="17.8072862">
        <ele>0</ele>
        <time>2012-08-03T20:13:14Z</time>
      </trkpt>
      <trkpt lat="59.4526447" lon="17.8073715">
        <ele>0</ele>
        <time>2012-08-03T20:13:16Z</time>
      </trkpt>
      <trkpt lat="59.4525531" lon="17.8075162">
        <ele>0</ele>
        <time>2012-08-03T20:13:19Z</time>
      </trkpt>
      <trkpt lat="59.4525058" lon="17.8076273">
        <ele>0</ele>
        <time>2012-08-03T20:13:21Z</time>
      </trkpt>
      <trkpt lat="59.4525302" lon="17.8078706">
        <ele>0</ele>
        <time>2012-08-03T20:13:26Z</time>
      </trkpt>
      <trkpt lat="59.4525789" lon="17.8079716">
        <ele>0</ele>
        <time>2012-08-03T20:13:28Z</time>
      </trkpt>
      <trkpt lat="59.4525952" lon="17.8081377">
        <ele>0</ele>
        <time>2012-08-03T20:13:31Z</time>
      </trkpt>
      <trkpt lat="59.4525738" lon="17.808195">
        <ele>0</ele>
        <time>2012-08-03T20:13:32Z</time>
      </trkpt>
      <trkpt lat="59.452525" lon="17.8083577">
        <ele>0</ele>
        <time>2012-08-03T20:13:35Z</time>
      </trkpt>
      <trkpt lat="59.4524789" lon="17.8085045">
        <ele>0</ele>
        <time>2012-08-03T20:13:38Z</time>
      </trkpt>
      <trkpt lat="59.4524043" lon="17.8086561">
        <ele>0</ele>
        <time>2012-08-03T20:13:41Z</time>
      </trkpt>
      <trkpt lat="59.4523533" lon="17.8087485">
        <ele>0</ele>
        <time>2012-08-03T20:13:43Z</time>
      </trkpt>
      <trkpt lat="59.4522026" lon="17.8090298">
        <ele>0</ele>
        <time>2012-08-03T20:13:48Z</time>
      </trkpt>
      <trkpt lat="59.4520728" lon="17.8093447">
        <ele>0</ele>
        <time>2012-08-03T20:13:53Z</time>
      </trkpt>
      <trkpt lat="59.4519503" lon="17.8096311">
        <ele>0</ele>
        <time>2012-08-03T20:13:58Z</time>
      </trkpt>
      <trkpt lat="59.4518172" lon="17.8099363">
        <ele>0</ele>
        <time>2012-08-03T20:14:04Z</time>
      </trkpt>
      <trkpt lat="59.4516787" lon="17.8102335">
        <ele>0</ele>
        <time>2012-08-03T20:14:10Z</time>
      </trkpt>
      <trkpt lat="59.4515553" lon="17.8105082">
        <ele>0</ele>
        <time>2012-08-03T20:14:15Z</time>
      </trkpt>
      <trkpt lat="59.4514211" lon="17.8107696">
        <ele>0</ele>
        <time>2012-08-03T20:14:20Z</time>
      </trkpt>
      <trkpt lat="59.4512889" lon="17.8110267">
        <ele>0</ele>
        <time>2012-08-03T20:14:26Z</time>
      </trkpt>
      <trkpt lat="59.4511731" lon="17.8113167">
        <ele>0</ele>
        <time>2012-08-03T20:14:31Z</time>
      </trkpt>
      <trkpt lat="59.4510552" lon="17.8116043">
        <ele>0</ele>
        <time>2012-08-03T20:14:36Z</time>
      </trkpt>
      <trkpt lat="59.4509341" lon="17.8119055">
        <ele>0</ele>
        <time>2012-08-03T20:14:41Z</time>
      </trkpt>
      <trkpt lat="59.4508182" lon="17.8121917">
        <ele>0</ele>
        <time>2012-08-03T20:14:46Z</time>
      </trkpt>
      <trkpt lat="59.4507128" lon="17.8125506">
        <ele>0</ele>
        <time>2012-08-03T20:14:52Z</time>
      </trkpt>
      <trkpt lat="59.4505945" lon="17.8128283">
        <ele>0</ele>
        <time>2012-08-03T20:14:58Z</time>
      </trkpt>
      <trkpt lat="59.4505011" lon="17.8131558">
        <ele>0</ele>
        <time>2012-08-03T20:15:04Z</time>
      </trkpt>
      <trkpt lat="59.4504861" lon="17.8135152">
        <ele>0</ele>
        <time>2012-08-03T20:15:09Z</time>
      </trkpt>
      <trkpt lat="59.4504518" lon="17.813695">
        <ele>0</ele>
        <time>2012-08-03T20:15:12Z</time>
      </trkpt>
      <trkpt lat="59.450386" lon="17.813883">
        <ele>0</ele>
        <time>2012-08-03T20:15:15Z</time>
      </trkpt>
      <trkpt lat="59.450309" lon="17.8140652">
        <ele>0</ele>
        <time>2012-08-03T20:15:18Z</time>
      </trkpt>
      <trkpt lat="59.4502758" lon="17.8141731">
        <ele>0</ele>
        <time>2012-08-03T20:15:20Z</time>
      </trkpt>
      <trkpt lat="59.4502388" lon="17.8145518">
        <ele>0</ele>
        <time>2012-08-03T20:15:26Z</time>
      </trkpt>
      <trkpt lat="59.4501795" lon="17.814877">
        <ele>0</ele>
        <time>2012-08-03T20:15:31Z</time>
      </trkpt>
      <trkpt lat="59.4500888" lon="17.8152412">
        <ele>0</ele>
        <time>2012-08-03T20:15:36Z</time>
      </trkpt>
      <trkpt lat="59.4500365" lon="17.8156334">
        <ele>0</ele>
        <time>2012-08-03T20:15:44Z</time>
      </trkpt>
      <trkpt lat="59.4499256" lon="17.8159553">
        <ele>0</ele>
        <time>2012-08-03T20:15:51Z</time>
      </trkpt>
      <trkpt lat="59.4498293" lon="17.8162974">
        <ele>0</ele>
        <time>2012-08-03T20:15:59Z</time>
      </trkpt>
      <trkpt lat="59.4497877" lon="17.816643">
        <ele>0</ele>
        <time>2012-08-03T20:16:06Z</time>
      </trkpt>
      <trkpt lat="59.4497272" lon="17.8169883">
        <ele>0</ele>
        <time>2012-08-03T20:16:12Z</time>
      </trkpt>
      <trkpt lat="59.4496996" lon="17.8173993">
        <ele>0</ele>
        <time>2012-08-03T20:16:18Z</time>
      </trkpt>
      <trkpt lat="59.4496766" lon="17.8177842">
        <ele>0</ele>
        <time>2012-08-03T20:16:24Z</time>
      </trkpt>
      <trkpt lat="59.4496242" lon="17.8180638">
        <ele>0</ele>
        <time>2012-08-03T20:16:29Z</time>
      </trkpt>
      <trkpt lat="59.4496258" lon="17.818167">
        <ele>0</ele>
        <time>2012-08-03T20:16:31Z</time>
      </trkpt>
      <trkpt lat="59.449608" lon="17.8184393">
        <ele>0</ele>
        <time>2012-08-03T20:16:37Z</time>
      </trkpt>
      <trkpt lat="59.449607" lon="17.8185175">
        <ele>0</ele>
        <time>2012-08-03T20:16:39Z</time>
      </trkpt>
      <trkpt lat="59.4495732" lon="17.8188664">
        <ele>0</ele>
        <time>2012-08-03T20:16:45Z</time>
      </trkpt>
      <trkpt lat="59.4495495" lon="17.8192854">
        <ele>0</ele>
        <time>2012-08-03T20:16:51Z</time>
      </trkpt>
      <trkpt lat="59.4495385" lon="17.8193737">
        <ele>0</ele>
        <time>2012-08-03T20:16:52Z</time>
      </trkpt>
      <trkpt lat="59.4495132" lon="17.8196562">
        <ele>0</ele>
        <time>2012-08-03T20:16:55Z</time>
      </trkpt>
      <trkpt lat="59.4495164" lon="17.8198577">
        <ele>0</ele>
        <time>2012-08-03T20:16:57Z</time>
      </trkpt>
      <trkpt lat="59.4495273" lon="17.8200707">
        <ele>0</ele>
        <time>2012-08-03T20:16:59Z</time>
      </trkpt>
      <trkpt lat="59.4495112" lon="17.8203401">
        <ele>0</ele>
        <time>2012-08-03T20:17:02Z</time>
      </trkpt>
      <trkpt lat="59.4495071" lon="17.8204054">
        <ele>0</ele>
        <time>2012-08-03T20:17:03Z</time>
      </trkpt>
      <trkpt lat="59.4494998" lon="17.8204753">
        <ele>0</ele>
        <time>2012-08-03T20:17:04Z</time>
      </trkpt>
      <trkpt lat="59.4494998" lon="17.8208166">
        <ele>0</ele>
        <time>2012-08-03T20:17:09Z</time>
      </trkpt>
      <trkpt lat="59.4494982" lon="17.8208917">
        <ele>0</ele>
        <time>2012-08-03T20:17:10Z</time>
      </trkpt>
      <trkpt lat="59.4494739" lon="17.8212361">
        <ele>0</ele>
        <time>2012-08-03T20:17:14Z</time>
      </trkpt>
      <trkpt lat="59.4494273" lon="17.8212998">
        <ele>0</ele>
        <time>2012-08-03T20:17:15Z</time>
      </trkpt>
      <trkpt lat="59.449389" lon="17.8214666">
        <ele>0</ele>
        <time>2012-08-03T20:17:17Z</time>
      </trkpt>
      <trkpt lat="59.4493522" lon="17.8215515">
        <ele>0</ele>
        <time>2012-08-03T20:17:18Z</time>
      </trkpt>
      <trkpt lat="59.4492828" lon="17.8217257">
        <ele>0</ele>
        <time>2012-08-03T20:17:20Z</time>
      </trkpt>
      <trkpt lat="59.4492062" lon="17.8217242">
        <ele>0</ele>
        <time>2012-08-03T20:17:21Z</time>
      </trkpt>
      <trkpt lat="59.4491484" lon="17.8219914">
        <ele>0</ele>
        <time>2012-08-03T20:17:30Z</time>
      </trkpt>
      <trkpt lat="59.4491408" lon="17.8220795">
        <ele>0</ele>
        <time>2012-08-03T20:17:32Z</time>
      </trkpt>
      <trkpt lat="59.4491425" lon="17.8222794">
        <ele>0</ele>
        <time>2012-08-03T20:17:37Z</time>
      </trkpt>
      <trkpt lat="59.4491309" lon="17.8223365">
        <ele>0</ele>
        <time>2012-08-03T20:17:38Z</time>
      </trkpt>
      <trkpt lat="59.4490124" lon="17.822677">
        <ele>0</ele>
        <time>2012-08-03T20:17:43Z</time>
      </trkpt>
      <trkpt lat="59.4488103" lon="17.8228456">
        <ele>0</ele>
        <time>2012-08-03T20:17:48Z</time>
      </trkpt>
      <trkpt lat="59.4486141" lon="17.8230284">
        <ele>0</ele>
        <time>2012-08-03T20:17:53Z</time>
      </trkpt>
      <trkpt lat="59.4484824" lon="17.8231335">
        <ele>0</ele>
        <time>2012-08-03T20:17:56Z</time>
      </trkpt>
      <trkpt lat="59.448438" lon="17.8231624">
        <ele>0</ele>
        <time>2012-08-03T20:17:57Z</time>
      </trkpt>
      <trkpt lat="59.4483991" lon="17.8231973">
        <ele>0</ele>
        <time>2012-08-03T20:17:58Z</time>
      </trkpt>
      <trkpt lat="59.4482566" lon="17.8233351">
        <ele>0</ele>
        <time>2012-08-03T20:18:02Z</time>
      </trkpt>
      <trkpt lat="59.448094" lon="17.8235346">
        <ele>0</ele>
        <time>2012-08-03T20:18:07Z</time>
      </trkpt>
      <trkpt lat="59.4480612" lon="17.8235696">
        <ele>0</ele>
        <time>2012-08-03T20:18:08Z</time>
      </trkpt>
      <trkpt lat="59.447895" lon="17.8236672">
        <ele>0</ele>
        <time>2012-08-03T20:18:12Z</time>
      </trkpt>
      <trkpt lat="59.4476956" lon="17.8237152">
        <ele>0</ele>
        <time>2012-08-03T20:18:17Z</time>
      </trkpt>
      <trkpt lat="59.4475084" lon="17.823694">
        <ele>0</ele>
        <time>2012-08-03T20:18:22Z</time>
      </trkpt>
      <trkpt lat="59.447464" lon="17.8236913">
        <ele>0</ele>
        <time>2012-08-03T20:18:23Z</time>
      </trkpt>
      <trkpt lat="59.4473173" lon="17.8238006">
        <ele>0</ele>
        <time>2012-08-03T20:18:26Z</time>
      </trkpt>
      <trkpt lat="59.4471738" lon="17.8240366">
        <ele>0</ele>
        <time>2012-08-03T20:18:27Z</time>
      </trkpt>
      <trkpt lat="59.4469859" lon="17.8242544">
        <ele>0</ele>
        <time>2012-08-03T20:18:30Z</time>
      </trkpt>
      <trkpt lat="59.4469217" lon="17.8243282">
        <ele>0</ele>
        <time>2012-08-03T20:18:31Z</time>
      </trkpt>
      <trkpt lat="59.4467879" lon="17.8244809">
        <ele>0</ele>
        <time>2012-08-03T20:18:33Z</time>
      </trkpt>
      <trkpt lat="59.4465782" lon="17.8247165">
        <ele>0</ele>
        <time>2012-08-03T20:18:36Z</time>
      </trkpt>
      <trkpt lat="59.4465063" lon="17.8248139">
        <ele>0</ele>
        <time>2012-08-03T20:18:37Z</time>
      </trkpt>
      <trkpt lat="59.4463679" lon="17.8249993">
        <ele>0</ele>
        <time>2012-08-03T20:18:39Z</time>
      </trkpt>
      <trkpt lat="59.4461255" lon="17.8253295">
        <ele>12.4</ele>
        <time>2012-08-03T20:18:42Z</time>
      </trkpt>
      <trkpt lat="59.4459592" lon="17.8255611">
        <ele>34.6</ele>
        <time>2012-08-03T20:18:44Z</time>
      </trkpt>
      <trkpt lat="59.4457573" lon="17.8257652">
        <ele>58.8</ele>
        <time>2012-08-03T20:18:48Z</time>
      </trkpt>
      <trkpt lat="59.445677" lon="17.8258288">
        <ele>66.8</ele>
        <time>2012-08-03T20:18:50Z</time>
      </trkpt>
      <trkpt lat="59.445576" lon="17.8258717">
        <ele>72.4</ele>
        <time>2012-08-03T20:18:53Z</time>
      </trkpt>
      <trkpt lat="59.4453613" lon="17.8258465">
        <ele>68</ele>
        <time>2012-08-03T20:19:00Z</time>
      </trkpt>
      <trkpt lat="59.4453304" lon="17.8258297">
        <ele>67.2</ele>
        <time>2012-08-03T20:19:01Z</time>
      </trkpt>
      <trkpt lat="59.4451661" lon="17.8257392">
        <ele>60.2</ele>
        <time>2012-08-03T20:19:06Z</time>
      </trkpt>
      <trkpt lat="59.4449679" lon="17.8256839">
        <ele>55.6</ele>
        <time>2012-08-03T20:19:12Z</time>
      </trkpt>
      <trkpt lat="59.4447683" lon="17.825634">
        <ele>52.6</ele>
        <time>2012-08-03T20:19:17Z</time>
      </trkpt>
      <trkpt lat="59.4445963" lon="17.8255839">
        <ele>50.2</ele>
        <time>2012-08-03T20:19:21Z</time>
      </trkpt>
      <trkpt lat="59.4445544" lon="17.8255558">
        <ele>49.2</ele>
        <time>2012-08-03T20:19:22Z</time>
      </trkpt>
      <trkpt lat="59.4443521" lon="17.825474">
        <ele>45</ele>
        <time>2012-08-03T20:19:27Z</time>
      </trkpt>
      <trkpt lat="59.4443114" lon="17.8254709">
        <ele>44.2</ele>
        <time>2012-08-03T20:19:28Z</time>
      </trkpt>
      <trkpt lat="59.4441792" lon="17.8254411">
        <ele>41.4</ele>
        <time>2012-08-03T20:19:31Z</time>
      </trkpt>
      <trkpt lat="59.4441343" lon="17.8254398">
        <ele>41.8</ele>
        <time>2012-08-03T20:19:32Z</time>
      </trkpt>
      <trkpt lat="59.4440058" lon="17.8254259">
        <ele>40.2</ele>
        <time>2012-08-03T20:19:35Z</time>
      </trkpt>
      <trkpt lat="59.443914" lon="17.8254243">
        <ele>39</ele>
        <time>2012-08-03T20:19:37Z</time>
      </trkpt>
      <trkpt lat="59.4438328" lon="17.8254191">
        <ele>38.4</ele>
        <time>2012-08-03T20:19:39Z</time>
      </trkpt>
      <trkpt lat="59.4437107" lon="17.8253666">
        <ele>35.4</ele>
        <time>2012-08-03T20:19:42Z</time>
      </trkpt>
      <trkpt lat="59.4436712" lon="17.8253681">
        <ele>35.4</ele>
        <time>2012-08-03T20:19:43Z</time>
      </trkpt>
      <trkpt lat="59.4435487" lon="17.8253486">
        <ele>32.2</ele>
        <time>2012-08-03T20:19:46Z</time>
      </trkpt>
      <trkpt lat="59.4435076" lon="17.8253394">
        <ele>32.6</ele>
        <time>2012-08-03T20:19:47Z</time>
      </trkpt>
      <trkpt lat="59.4434711" lon="17.8253272">
        <ele>32</ele>
        <time>2012-08-03T20:19:48Z</time>
      </trkpt>
      <trkpt lat="59.4433188" lon="17.8253073">
        <ele>32</ele>
        <time>2012-08-03T20:19:52Z</time>
      </trkpt>
      <trkpt lat="59.4431981" lon="17.8252987">
        <ele>33.8</ele>
        <time>2012-08-03T20:19:55Z</time>
      </trkpt>
      <trkpt lat="59.4431203" lon="17.8253367">
        <ele>36</ele>
        <time>2012-08-03T20:19:57Z</time>
      </trkpt>
      <trkpt lat="59.442918" lon="17.82537">
        <ele>39</ele>
        <time>2012-08-03T20:20:02Z</time>
      </trkpt>
      <trkpt lat="59.442831" lon="17.8253866">
        <ele>40.6</ele>
        <time>2012-08-03T20:20:04Z</time>
      </trkpt>
      <trkpt lat="59.4427103" lon="17.8254263">
        <ele>40.6</ele>
        <time>2012-08-03T20:20:07Z</time>
      </trkpt>
      <trkpt lat="59.4425806" lon="17.8254791">
        <ele>39.4</ele>
        <time>2012-08-03T20:20:10Z</time>
      </trkpt>
      <trkpt lat="59.4425305" lon="17.8254875">
        <ele>39.8</ele>
        <time>2012-08-03T20:20:11Z</time>
      </trkpt>
      <trkpt lat="59.4424075" lon="17.8255253">
        <ele>39.4</ele>
        <time>2012-08-03T20:20:14Z</time>
      </trkpt>
      <trkpt lat="59.4423725" lon="17.8255394">
        <ele>37.6</ele>
        <time>2012-08-03T20:20:15Z</time>
      </trkpt>
      <trkpt lat="59.4423306" lon="17.8255527">
        <ele>36.4</ele>
        <time>2012-08-03T20:20:16Z</time>
      </trkpt>
      <trkpt lat="59.4422643" lon="17.8255802">
        <ele>35.4</ele>
        <time>2012-08-03T20:20:18Z</time>
      </trkpt>
      <trkpt lat="59.4421311" lon="17.8256608">
        <ele>34.4</ele>
        <time>2012-08-03T20:20:22Z</time>
      </trkpt>
      <trkpt lat="59.4420896" lon="17.8256678">
        <ele>33.6</ele>
        <time>2012-08-03T20:20:23Z</time>
      </trkpt>
      <trkpt lat="59.441933" lon="17.8257122">
        <ele>30.6</ele>
        <time>2012-08-03T20:20:27Z</time>
      </trkpt>
      <trkpt lat="59.4417403" lon="17.8257713">
        <ele>27.2</ele>
        <time>2012-08-03T20:20:32Z</time>
      </trkpt>
      <trkpt lat="59.4415337" lon="17.8259177">
        <ele>26.2</ele>
        <time>2012-08-03T20:20:37Z</time>
      </trkpt>
      <trkpt lat="59.4413353" lon="17.8260266">
        <ele>26</ele>
        <time>2012-08-03T20:20:42Z</time>
      </trkpt>
      <trkpt lat="59.4412956" lon="17.8260534">
        <ele>26.6</ele>
        <time>2012-08-03T20:20:43Z</time>
      </trkpt>
      <trkpt lat="59.4411329" lon="17.8261343">
        <ele>24.6</ele>
        <time>2012-08-03T20:20:47Z</time>
      </trkpt>
      <trkpt lat="59.4410951" lon="17.8261553">
        <ele>24.4</ele>
        <time>2012-08-03T20:20:48Z</time>
      </trkpt>
      <trkpt lat="59.4409299" lon="17.8262546">
        <ele>21</ele>
        <time>2012-08-03T20:20:52Z</time>
      </trkpt>
      <trkpt lat="59.440846" lon="17.8262976">
        <ele>22.2</ele>
        <time>2012-08-03T20:20:54Z</time>
      </trkpt>
      <trkpt lat="59.4407207" lon="17.826392">
        <ele>22.8</ele>
        <time>2012-08-03T20:20:57Z</time>
      </trkpt>
      <trkpt lat="59.4405537" lon="17.8265042">
        <ele>22.8</ele>
        <time>2012-08-03T20:21:01Z</time>
      </trkpt>
      <trkpt lat="59.440509" lon="17.8265166">
        <ele>23</ele>
        <time>2012-08-03T20:21:02Z</time>
      </trkpt>
      <trkpt lat="59.4403332" lon="17.8266058">
        <ele>21.8</ele>
        <time>2012-08-03T20:21:06Z</time>
      </trkpt>
      <trkpt lat="59.440244" lon="17.8266406">
        <ele>23.2</ele>
        <time>2012-08-03T20:21:08Z</time>
      </trkpt>
      <trkpt lat="59.4401464" lon="17.8266632">
        <ele>25.4</ele>
        <time>2012-08-03T20:21:10Z</time>
      </trkpt>
      <trkpt lat="59.4400555" lon="17.8266908">
        <ele>24.4</ele>
        <time>2012-08-03T20:21:12Z</time>
      </trkpt>
      <trkpt lat="59.4399685" lon="17.8267275">
        <ele>23.2</ele>
        <time>2012-08-03T20:21:14Z</time>
      </trkpt>
      <trkpt lat="59.4397534" lon="17.8267928">
        <ele>23.6</ele>
        <time>2012-08-03T20:21:19Z</time>
      </trkpt>
      <trkpt lat="59.4396512" lon="17.826808">
        <ele>23</ele>
        <time>2012-08-03T20:21:21Z</time>
      </trkpt>
      <trkpt lat="59.4395509" lon="17.8268333">
        <ele>24</ele>
        <time>2012-08-03T20:21:23Z</time>
      </trkpt>
      <trkpt lat="59.4395" lon="17.8268431">
        <ele>24.8</ele>
        <time>2012-08-03T20:21:24Z</time>
      </trkpt>
      <trkpt lat="59.4393654" lon="17.8268736">
        <ele>26.6</ele>
        <time>2012-08-03T20:21:27Z</time>
      </trkpt>
      <trkpt lat="59.4392172" lon="17.8268668">
        <ele>29.2</ele>
        <time>2012-08-03T20:21:30Z</time>
      </trkpt>
      <trkpt lat="59.4391729" lon="17.8268582">
        <ele>30</ele>
        <time>2012-08-03T20:21:31Z</time>
      </trkpt>
      <trkpt lat="59.4390506" lon="17.8268524">
        <ele>33.2</ele>
        <time>2012-08-03T20:21:34Z</time>
      </trkpt>
      <trkpt lat="59.4389779" lon="17.8268502">
        <ele>32.6</ele>
        <time>2012-08-03T20:21:36Z</time>
      </trkpt>
      <trkpt lat="59.4387683" lon="17.8268795">
        <ele>37.8</ele>
        <time>2012-08-03T20:21:41Z</time>
      </trkpt>
      <trkpt lat="59.4386096" lon="17.8268652">
        <ele>41.2</ele>
        <time>2012-08-03T20:21:45Z</time>
      </trkpt>
      <trkpt lat="59.4385666" lon="17.826872">
        <ele>40.4</ele>
        <time>2012-08-03T20:21:46Z</time>
      </trkpt>
      <trkpt lat="59.4384672" lon="17.8269779">
        <ele>38</ele>
        <time>2012-08-03T20:21:49Z</time>
      </trkpt>
      <trkpt lat="59.4384413" lon="17.8270363">
        <ele>38</ele>
        <time>2012-08-03T20:21:50Z</time>
      </trkpt>
      <trkpt lat="59.4384227" lon="17.8271341">
        <ele>39.4</ele>
        <time>2012-08-03T20:21:52Z</time>
      </trkpt>
      <trkpt lat="59.4384114" lon="17.8274251">
        <ele>38.4</ele>
        <time>2012-08-03T20:21:56Z</time>
      </trkpt>
      <trkpt lat="59.4384156" lon="17.8274961">
        <ele>39</ele>
        <time>2012-08-03T20:21:57Z</time>
      </trkpt>
      <trkpt lat="59.4383954" lon="17.8278592">
        <ele>37.2</ele>
        <time>2012-08-03T20:22:03Z</time>
      </trkpt>
      <trkpt lat="59.4383129" lon="17.8280463">
        <ele>36.2</ele>
        <time>2012-08-03T20:22:06Z</time>
      </trkpt>
      <trkpt lat="59.4382278" lon="17.8280877">
        <ele>35.2</ele>
        <time>2012-08-03T20:22:08Z</time>
      </trkpt>
      <trkpt lat="59.438043" lon="17.8280433">
        <ele>32.8</ele>
        <time>2012-08-03T20:22:12Z</time>
      </trkpt>
      <trkpt lat="59.4378737" lon="17.8279274">
        <ele>30.4</ele>
        <time>2012-08-03T20:22:16Z</time>
      </trkpt>
      <trkpt lat="59.4377462" lon="17.8278479">
        <ele>29</ele>
        <time>2012-08-03T20:22:19Z</time>
      </trkpt>
      <trkpt lat="59.4377006" lon="17.8278226">
        <ele>29</ele>
        <time>2012-08-03T20:22:20Z</time>
      </trkpt>
      <trkpt lat="59.4375709" lon="17.827768">
        <ele>28.4</ele>
        <time>2012-08-03T20:22:23Z</time>
      </trkpt>
      <trkpt lat="59.4374846" lon="17.8277294">
        <ele>27.4</ele>
        <time>2012-08-03T20:22:25Z</time>
      </trkpt>
      <trkpt lat="59.4373585" lon="17.8276738">
        <ele>26</ele>
        <time>2012-08-03T20:22:28Z</time>
      </trkpt>
      <trkpt lat="59.4372759" lon="17.8276393">
        <ele>25</ele>
        <time>2012-08-03T20:22:30Z</time>
      </trkpt>
      <trkpt lat="59.4371971" lon="17.8275915">
        <ele>24.4</ele>
        <time>2012-08-03T20:22:32Z</time>
      </trkpt>
      <trkpt lat="59.4371523" lon="17.8275717">
        <ele>24</ele>
        <time>2012-08-03T20:22:33Z</time>
      </trkpt>
      <trkpt lat="59.4370722" lon="17.8275388">
        <ele>22.6</ele>
        <time>2012-08-03T20:22:35Z</time>
      </trkpt>
      <trkpt lat="59.4370298" lon="17.8275335">
        <ele>22.4</ele>
        <time>2012-08-03T20:22:36Z</time>
      </trkpt>
      <trkpt lat="59.4369116" lon="17.8275244">
        <ele>21.4</ele>
        <time>2012-08-03T20:22:39Z</time>
      </trkpt>
      <trkpt lat="59.4368771" lon="17.8275244">
        <ele>21.6</ele>
        <time>2012-08-03T20:22:40Z</time>
      </trkpt>
      <trkpt lat="59.436691" lon="17.8275901">
        <ele>21.4</ele>
        <time>2012-08-03T20:22:45Z</time>
      </trkpt>
      <trkpt lat="59.4365631" lon="17.8276988">
        <ele>22.4</ele>
        <time>2012-08-03T20:22:48Z</time>
      </trkpt>
      <trkpt lat="59.4365243" lon="17.8277387">
        <ele>22.6</ele>
        <time>2012-08-03T20:22:49Z</time>
      </trkpt>
      <trkpt lat="59.4364816" lon="17.8277808">
        <ele>23.6</ele>
        <time>2012-08-03T20:22:50Z</time>
      </trkpt>
      <trkpt lat="59.4363867" lon="17.82786">
        <ele>23.4</ele>
        <time>2012-08-03T20:22:52Z</time>
      </trkpt>
      <trkpt lat="59.4363433" lon="17.8279096">
        <ele>24.6</ele>
        <time>2012-08-03T20:22:53Z</time>
      </trkpt>
      <trkpt lat="59.4361831" lon="17.828067">
        <ele>26</ele>
        <time>2012-08-03T20:22:57Z</time>
      </trkpt>
      <trkpt lat="59.4361427" lon="17.8281013">
        <ele>26</ele>
        <time>2012-08-03T20:22:58Z</time>
      </trkpt>
      <trkpt lat="59.4360684" lon="17.8281594">
        <ele>26.6</ele>
        <time>2012-08-03T20:23:00Z</time>
      </trkpt>
      <trkpt lat="59.4359808" lon="17.828253">
        <ele>27</ele>
        <time>2012-08-03T20:23:02Z</time>
      </trkpt>
      <trkpt lat="59.4358011" lon="17.8284489">
        <ele>28.2</ele>
        <time>2012-08-03T20:23:06Z</time>
      </trkpt>
      <trkpt lat="59.4357022" lon="17.8285643">
        <ele>30.4</ele>
        <time>2012-08-03T20:23:08Z</time>
      </trkpt>
      <trkpt lat="59.4356419" lon="17.8286285">
        <ele>32.2</ele>
        <time>2012-08-03T20:23:09Z</time>
      </trkpt>
      <trkpt lat="59.4354586" lon="17.8287549">
        <ele>32.6</ele>
        <time>2012-08-03T20:23:12Z</time>
      </trkpt>
      <trkpt lat="59.4353556" lon="17.8288105">
        <ele>32</ele>
        <time>2012-08-03T20:23:14Z</time>
      </trkpt>
      <trkpt lat="59.4352731" lon="17.8288975">
        <ele>31.2</ele>
        <time>2012-08-03T20:23:16Z</time>
      </trkpt>
      <trkpt lat="59.4351961" lon="17.8292331">
        <ele>30.6</ele>
        <time>2012-08-03T20:23:21Z</time>
      </trkpt>
      <trkpt lat="59.4351811" lon="17.829449">
        <ele>30.4</ele>
        <time>2012-08-03T20:23:24Z</time>
      </trkpt>
      <trkpt lat="59.4351769" lon="17.829516">
        <ele>30.4</ele>
        <time>2012-08-03T20:23:25Z</time>
      </trkpt>
      <trkpt lat="59.4351514" lon="17.8296402">
        <ele>30.6</ele>
        <time>2012-08-03T20:23:27Z</time>
      </trkpt>
      <trkpt lat="59.4350971" lon="17.8298408">
        <ele>31.6</ele>
        <time>2012-08-03T20:23:31Z</time>
      </trkpt>
      <trkpt lat="59.43504" lon="17.8299595">
        <ele>31</ele>
        <time>2012-08-03T20:23:33Z</time>
      </trkpt>
      <trkpt lat="59.4348666" lon="17.8302074">
        <ele>31</ele>
        <time>2012-08-03T20:23:38Z</time>
      </trkpt>
      <trkpt lat="59.4347604" lon="17.8303617">
        <ele>31.8</ele>
        <time>2012-08-03T20:23:41Z</time>
      </trkpt>
      <trkpt lat="59.4346962" lon="17.830469">
        <ele>31.4</ele>
        <time>2012-08-03T20:23:43Z</time>
      </trkpt>
      <trkpt lat="59.4345511" lon="17.8306407">
        <ele>30.6</ele>
        <time>2012-08-03T20:23:47Z</time>
      </trkpt>
      <trkpt lat="59.4345112" lon="17.8306878">
        <ele>31.6</ele>
        <time>2012-08-03T20:23:48Z</time>
      </trkpt>
      <trkpt lat="59.4343243" lon="17.8309043">
        <ele>30.4</ele>
        <time>2012-08-03T20:23:53Z</time>
      </trkpt>
      <trkpt lat="59.4342854" lon="17.8309362">
        <ele>30.2</ele>
        <time>2012-08-03T20:23:54Z</time>
      </trkpt>
      <trkpt lat="59.4341334" lon="17.8310685">
        <ele>29.6</ele>
        <time>2012-08-03T20:23:58Z</time>
      </trkpt>
      <trkpt lat="59.4339596" lon="17.8311948">
        <ele>28.4</ele>
        <time>2012-08-03T20:24:03Z</time>
      </trkpt>
      <trkpt lat="59.4337529" lon="17.8313138">
        <ele>28.6</ele>
        <time>2012-08-03T20:24:09Z</time>
      </trkpt>
      <trkpt lat="59.4335653" lon="17.8314548">
        <ele>29</ele>
        <time>2012-08-03T20:24:14Z</time>
      </trkpt>
      <trkpt lat="59.4333926" lon="17.831612">
        <ele>29.2</ele>
        <time>2012-08-03T20:24:19Z</time>
      </trkpt>
      <trkpt lat="59.4332141" lon="17.8317668">
        <ele>30.2</ele>
        <time>2012-08-03T20:24:25Z</time>
      </trkpt>
      <trkpt lat="59.4331989" lon="17.8316195">
        <ele>39</ele>
        <time>2012-08-03T20:24:32Z</time>
      </trkpt>
      <trkpt lat="59.433169" lon="17.8316532">
        <ele>39.6</ele>
        <time>2012-08-03T20:24:33Z</time>
      </trkpt>
      <trkpt lat="59.4331338" lon="17.8316856">
        <ele>39.6</ele>
        <time>2012-08-03T20:24:34Z</time>
      </trkpt>
      <trkpt lat="59.4329877" lon="17.8318083">
        <ele>38.2</ele>
        <time>2012-08-03T20:24:38Z</time>
      </trkpt>
      <trkpt lat="59.4328464" lon="17.8319377">
        <ele>36.8</ele>
        <time>2012-08-03T20:24:42Z</time>
      </trkpt>
      <trkpt lat="59.4328121" lon="17.8319786">
        <ele>36</ele>
        <time>2012-08-03T20:24:43Z</time>
      </trkpt>
      <trkpt lat="59.4326516" lon="17.8321542">
        <ele>34.2</ele>
        <time>2012-08-03T20:24:48Z</time>
      </trkpt>
      <trkpt lat="59.4324589" lon="17.8323412">
        <ele>34.8</ele>
        <time>2012-08-03T20:24:53Z</time>
      </trkpt>
      <trkpt lat="59.4324177" lon="17.8323846">
        <ele>34.6</ele>
        <time>2012-08-03T20:24:54Z</time>
      </trkpt>
      <trkpt lat="59.4322846" lon="17.8325054">
        <ele>33.8</ele>
        <time>2012-08-03T20:24:57Z</time>
      </trkpt>
      <trkpt lat="59.4321976" lon="17.8326061">
        <ele>33.2</ele>
        <time>2012-08-03T20:24:59Z</time>
      </trkpt>
      <trkpt lat="59.4321076" lon="17.8327126">
        <ele>32.8</ele>
        <time>2012-08-03T20:25:01Z</time>
      </trkpt>
      <trkpt lat="59.4319358" lon="17.8328628">
        <ele>32.2</ele>
        <time>2012-08-03T20:25:05Z</time>
      </trkpt>
      <trkpt lat="59.4317745" lon="17.8330478">
        <ele>31.6</ele>
        <time>2012-08-03T20:25:09Z</time>
      </trkpt>
      <trkpt lat="59.4316025" lon="17.8332443">
        <ele>30.4</ele>
        <time>2012-08-03T20:25:13Z</time>
      </trkpt>
      <trkpt lat="59.4315548" lon="17.8332952">
        <ele>29.8</ele>
        <time>2012-08-03T20:25:14Z</time>
      </trkpt>
      <trkpt lat="59.4315705" lon="17.833251">
        <ele>34.6</ele>
        <time>2012-08-03T20:25:17Z</time>
      </trkpt>
      <trkpt lat="59.4315181" lon="17.8336996">
        <ele>32.8</ele>
        <time>2012-08-03T20:25:20Z</time>
      </trkpt>
      <trkpt lat="59.4316526" lon="17.8339817">
        <ele>31.6</ele>
        <time>2012-08-03T20:25:25Z</time>
      </trkpt>
      <trkpt lat="59.4318505" lon="17.8340786">
        <ele>29.2</ele>
        <time>2012-08-03T20:25:30Z</time>
      </trkpt>
      <trkpt lat="59.4319683" lon="17.834129">
        <ele>29</ele>
        <time>2012-08-03T20:25:33Z</time>
      </trkpt>
      <trkpt lat="59.4320575" lon="17.8341739">
        <ele>28.4</ele>
        <time>2012-08-03T20:25:35Z</time>
      </trkpt>
      <trkpt lat="59.4320957" lon="17.8341961">
        <ele>28</ele>
        <time>2012-08-03T20:25:36Z</time>
      </trkpt>
      <trkpt lat="59.432237" lon="17.8342495">
        <ele>27.2</ele>
        <time>2012-08-03T20:25:39Z</time>
      </trkpt>
      <trkpt lat="59.4322852" lon="17.8342828">
        <ele>27.2</ele>
        <time>2012-08-03T20:25:40Z</time>
      </trkpt>
      <trkpt lat="59.432365" lon="17.8343573">
        <ele>28.6</ele>
        <time>2012-08-03T20:25:42Z</time>
      </trkpt>
      <trkpt lat="59.4324304" lon="17.8344579">
        <ele>29</ele>
        <time>2012-08-03T20:25:44Z</time>
      </trkpt>
      <trkpt lat="59.4325869" lon="17.8346954">
        <ele>29.4</ele>
        <time>2012-08-03T20:25:48Z</time>
      </trkpt>
      <trkpt lat="59.4326133" lon="17.8347641">
        <ele>28.6</ele>
        <time>2012-08-03T20:25:49Z</time>
      </trkpt>
      <trkpt lat="59.4326991" lon="17.8350127">
        <ele>28.2</ele>
        <time>2012-08-03T20:25:52Z</time>
      </trkpt>
      <trkpt lat="59.432826" lon="17.8353203">
        <ele>26.4</ele>
        <time>2012-08-03T20:25:56Z</time>
      </trkpt>
      <trkpt lat="59.4328546" lon="17.8354046">
        <ele>26.4</ele>
        <time>2012-08-03T20:25:57Z</time>
      </trkpt>
      <trkpt lat="59.4329026" lon="17.8357221">
        <ele>22.2</ele>
        <time>2012-08-03T20:26:01Z</time>
      </trkpt>
      <trkpt lat="59.4328681" lon="17.8361103">
        <ele>18.8</ele>
        <time>2012-08-03T20:26:04Z</time>
      </trkpt>
      <trkpt lat="59.4328588" lon="17.8363221">
        <ele>16.4</ele>
        <time>2012-08-03T20:26:06Z</time>
      </trkpt>
      <trkpt lat="59.4328508" lon="17.8364277">
        <ele>15.4</ele>
        <time>2012-08-03T20:26:07Z</time>
      </trkpt>
      <trkpt lat="59.4328417" lon="17.836535">
        <ele>14.8</ele>
        <time>2012-08-03T20:26:08Z</time>
      </trkpt>
      <trkpt lat="59.4328329" lon="17.8369122">
        <ele>12.2</ele>
        <time>2012-08-03T20:26:12Z</time>
      </trkpt>
      <trkpt lat="59.4328317" lon="17.8372768">
        <ele>10</ele>
        <time>2012-08-03T20:26:16Z</time>
      </trkpt>
      <trkpt lat="59.4328178" lon="17.8376361">
        <ele>8.8</ele>
        <time>2012-08-03T20:26:20Z</time>
      </trkpt>
      <trkpt lat="59.4328114" lon="17.8377245">
        <ele>8.8</ele>
        <time>2012-08-03T20:26:21Z</time>
      </trkpt>
      <trkpt lat="59.4327904" lon="17.8379811">
        <ele>8.4</ele>
        <time>2012-08-03T20:26:24Z</time>
      </trkpt>
      <trkpt lat="59.4327663" lon="17.8382107">
        <ele>8.6</ele>
        <time>2012-08-03T20:26:27Z</time>
      </trkpt>
      <trkpt lat="59.432755" lon="17.8383625">
        <ele>9</ele>
        <time>2012-08-03T20:26:29Z</time>
      </trkpt>
      <trkpt lat="59.4327515" lon="17.8385071">
        <ele>9.4</ele>
        <time>2012-08-03T20:26:31Z</time>
      </trkpt>
      <trkpt lat="59.4327436" lon="17.8386574">
        <ele>9.4</ele>
        <time>2012-08-03T20:26:33Z</time>
      </trkpt>
      <trkpt lat="59.4327384" lon="17.8387243">
        <ele>9</ele>
        <time>2012-08-03T20:26:34Z</time>
      </trkpt>
      <trkpt lat="59.432668" lon="17.8390666">
        <ele>14.4</ele>
        <time>2012-08-03T20:26:39Z</time>
      </trkpt>
      <trkpt lat="59.4326361" lon="17.8392903">
        <ele>15</ele>
        <time>2012-08-03T20:26:42Z</time>
      </trkpt>
      <trkpt lat="59.4326158" lon="17.8394328">
        <ele>16.6</ele>
        <time>2012-08-03T20:26:44Z</time>
      </trkpt>
      <trkpt lat="59.432521" lon="17.8397264">
        <ele>19.2</ele>
        <time>2012-08-03T20:26:48Z</time>
      </trkpt>
      <trkpt lat="59.4324956" lon="17.8398007">
        <ele>19.8</ele>
        <time>2012-08-03T20:26:49Z</time>
      </trkpt>
      <trkpt lat="59.4323604" lon="17.8401446">
        <ele>21.2</ele>
        <time>2012-08-03T20:26:54Z</time>
      </trkpt>
      <trkpt lat="59.4322" lon="17.840376">
        <ele>22</ele>
        <time>2012-08-03T20:26:58Z</time>
      </trkpt>
      <trkpt lat="59.4321513" lon="17.8404212">
        <ele>22</ele>
        <time>2012-08-03T20:26:59Z</time>
      </trkpt>
      <trkpt lat="59.4320128" lon="17.8405433">
        <ele>23</ele>
        <time>2012-08-03T20:27:02Z</time>
      </trkpt>
      <trkpt lat="59.4319149" lon="17.8406232">
        <ele>24</ele>
        <time>2012-08-03T20:27:04Z</time>
      </trkpt>
      <trkpt lat="59.4318134" lon="17.8407236">
        <ele>24.4</ele>
        <time>2012-08-03T20:27:06Z</time>
      </trkpt>
      <trkpt lat="59.4317586" lon="17.8407792">
        <ele>25</ele>
        <time>2012-08-03T20:27:07Z</time>
      </trkpt>
      <trkpt lat="59.4316418" lon="17.8408765">
        <ele>25.4</ele>
        <time>2012-08-03T20:27:09Z</time>
      </trkpt>
      <trkpt lat="59.4314254" lon="17.841045">
        <ele>26</ele>
        <time>2012-08-03T20:27:13Z</time>
      </trkpt>
      <trkpt lat="59.4312617" lon="17.8411574">
        <ele>25.8</ele>
        <time>2012-08-03T20:27:16Z</time>
      </trkpt>
      <trkpt lat="59.431211" lon="17.8411883">
        <ele>26</ele>
        <time>2012-08-03T20:27:17Z</time>
      </trkpt>
      <trkpt lat="59.431111" lon="17.8412551">
        <ele>26.8</ele>
        <time>2012-08-03T20:27:19Z</time>
      </trkpt>
      <trkpt lat="59.4310118" lon="17.8413085">
        <ele>27.2</ele>
        <time>2012-08-03T20:27:21Z</time>
      </trkpt>
      <trkpt lat="59.4309156" lon="17.8413508">
        <ele>27</ele>
        <time>2012-08-03T20:27:23Z</time>
      </trkpt>
      <trkpt lat="59.4308704" lon="17.8413686">
        <ele>27.4</ele>
        <time>2012-08-03T20:27:24Z</time>
      </trkpt>
      <trkpt lat="59.4308256" lon="17.8413857">
        <ele>27.6</ele>
        <time>2012-08-03T20:27:25Z</time>
      </trkpt>
      <trkpt lat="59.4307415" lon="17.8414183">
        <ele>27.6</ele>
        <time>2012-08-03T20:27:27Z</time>
      </trkpt>
      <trkpt lat="59.430609" lon="17.8414903">
        <ele>26</ele>
        <time>2012-08-03T20:27:30Z</time>
      </trkpt>
      <trkpt lat="59.4305634" lon="17.8415099">
        <ele>25.8</ele>
        <time>2012-08-03T20:27:31Z</time>
      </trkpt>
      <trkpt lat="59.4304257" lon="17.8415831">
        <ele>23.4</ele>
        <time>2012-08-03T20:27:34Z</time>
      </trkpt>
      <trkpt lat="59.4302967" lon="17.841659">
        <ele>22.2</ele>
        <time>2012-08-03T20:27:37Z</time>
      </trkpt>
      <trkpt lat="59.4302107" lon="17.841711">
        <ele>22</ele>
        <time>2012-08-03T20:27:39Z</time>
      </trkpt>
      <trkpt lat="59.4300022" lon="17.8417266">
        <ele>16.8</ele>
        <time>2012-08-03T20:27:46Z</time>
      </trkpt>
      <trkpt lat="59.429904" lon="17.8417203">
        <ele>15</ele>
        <time>2012-08-03T20:27:49Z</time>
      </trkpt>
      <trkpt lat="59.4297916" lon="17.8417082">
        <ele>17.8</ele>
        <time>2012-08-03T20:27:52Z</time>
      </trkpt>
      <trkpt lat="59.4295968" lon="17.8416938">
        <ele>20</ele>
        <time>2012-08-03T20:27:57Z</time>
      </trkpt>
      <trkpt lat="59.4294231" lon="17.8418488">
        <ele>22</ele>
        <time>2012-08-03T20:28:03Z</time>
      </trkpt>
      <trkpt lat="59.429344" lon="17.8421789">
        <ele>20.6</ele>
        <time>2012-08-03T20:28:07Z</time>
      </trkpt>
      <trkpt lat="59.4293157" lon="17.8423838">
        <ele>20.4</ele>
        <time>2012-08-03T20:28:09Z</time>
      </trkpt>
      <trkpt lat="59.4292967" lon="17.8425818">
        <ele>21</ele>
        <time>2012-08-03T20:28:11Z</time>
      </trkpt>
      <trkpt lat="59.4292911" lon="17.8426774">
        <ele>21</ele>
        <time>2012-08-03T20:28:12Z</time>
      </trkpt>
      <trkpt lat="59.4292513" lon="17.8429521">
        <ele>21.2</ele>
        <time>2012-08-03T20:28:15Z</time>
      </trkpt>
      <trkpt lat="59.4292375" lon="17.8430366">
        <ele>21.2</ele>
        <time>2012-08-03T20:28:16Z</time>
      </trkpt>
      <trkpt lat="59.4291827" lon="17.8433227">
        <ele>20.6</ele>
        <time>2012-08-03T20:28:20Z</time>
      </trkpt>
      <trkpt lat="59.4291587" lon="17.8434669">
        <ele>20</ele>
        <time>2012-08-03T20:28:22Z</time>
      </trkpt>
      <trkpt lat="59.4291383" lon="17.8436891">
        <ele>20.4</ele>
        <time>2012-08-03T20:28:25Z</time>
      </trkpt>
      <trkpt lat="59.4290922" lon="17.8440265">
        <ele>22</ele>
        <time>2012-08-03T20:28:30Z</time>
      </trkpt>
      <trkpt lat="59.429072" lon="17.8441721">
        <ele>21.2</ele>
        <time>2012-08-03T20:28:32Z</time>
      </trkpt>
      <trkpt lat="59.4290307" lon="17.8444027">
        <ele>22.4</ele>
        <time>2012-08-03T20:28:35Z</time>
      </trkpt>
      <trkpt lat="59.4289504" lon="17.8447724">
        <ele>24.4</ele>
        <time>2012-08-03T20:28:41Z</time>
      </trkpt>
      <trkpt lat="59.4289027" lon="17.8448082">
        <ele>26</ele>
        <time>2012-08-03T20:28:44Z</time>
      </trkpt>
      <trkpt lat="59.4288272" lon="17.844816">
        <ele>27.6</ele>
        <time>2012-08-03T20:28:48Z</time>
      </trkpt>
      <trkpt lat="59.4287825" lon="17.8448489">
        <ele>28</ele>
        <time>2012-08-03T20:28:51Z</time>
      </trkpt>
      <trkpt lat="59.4287647" lon="17.8449862">
        <ele>27.8</ele>
        <time>2012-08-03T20:28:54Z</time>
      </trkpt>
      <trkpt lat="59.4287286" lon="17.8452303">
        <ele>27.4</ele>
        <time>2012-08-03T20:28:58Z</time>
      </trkpt>
      <trkpt lat="59.4287048" lon="17.8455926">
        <ele>25.8</ele>
        <time>2012-08-03T20:29:03Z</time>
      </trkpt>
      <trkpt lat="59.4286951" lon="17.8459916">
        <ele>26.2</ele>
        <time>2012-08-03T20:29:10Z</time>
      </trkpt>
      <trkpt lat="59.4287047" lon="17.8463155">
        <ele>25.8</ele>
        <time>2012-08-03T20:29:19Z</time>
      </trkpt>
      <trkpt lat="59.4287784" lon="17.8463062">
        <ele>25.6</ele>
        <time>2012-08-03T20:29:22Z</time>
      </trkpt>
      <trkpt lat="59.4288116" lon="17.8462922">
        <ele>25.4</ele>
        <time>2012-08-03T20:29:23Z</time>
      </trkpt>
      <trkpt lat="59.4289699" lon="17.8462224">
        <ele>23.8</ele>
        <time>2012-08-03T20:29:27Z</time>
      </trkpt>
      <trkpt lat="59.4291855" lon="17.8461157">
        <ele>21</ele>
        <time>2012-08-03T20:29:32Z</time>
      </trkpt>
      <trkpt lat="59.4292347" lon="17.8460893">
        <ele>20.6</ele>
        <time>2012-08-03T20:29:33Z</time>
      </trkpt>
      <trkpt lat="59.4293278" lon="17.8460535">
        <ele>19.4</ele>
        <time>2012-08-03T20:29:35Z</time>
      </trkpt>
      <trkpt lat="59.4293777" lon="17.8460419">
        <ele>18.4</ele>
        <time>2012-08-03T20:29:36Z</time>
      </trkpt>
      <trkpt lat="59.4295673" lon="17.8459995">
        <ele>17.8</ele>
        <time>2012-08-03T20:29:40Z</time>
      </trkpt>
      <trkpt lat="59.4296066" lon="17.8459855">
        <ele>17.8</ele>
        <time>2012-08-03T20:29:41Z</time>
      </trkpt>
      <trkpt lat="59.4297957" lon="17.8459193">
        <ele>17</ele>
        <time>2012-08-03T20:29:45Z</time>
      </trkpt>
      <trkpt lat="59.4300279" lon="17.8458707">
        <ele>16.6</ele>
        <time>2012-08-03T20:29:49Z</time>
      </trkpt>
      <trkpt lat="59.4302635" lon="17.8458521">
        <ele>16.2</ele>
        <time>2012-08-03T20:29:53Z</time>
      </trkpt>
      <trkpt lat="59.4304949" lon="17.8458454">
        <ele>16.6</ele>
        <time>2012-08-03T20:29:57Z</time>
      </trkpt>
      <trkpt lat="59.4307314" lon="17.845829">
        <ele>16.2</ele>
        <time>2012-08-03T20:30:01Z</time>
      </trkpt>
      <trkpt lat="59.4309577" lon="17.8458026">
        <ele>14.8</ele>
        <time>2012-08-03T20:30:05Z</time>
      </trkpt>
      <trkpt lat="59.431182" lon="17.8457764">
        <ele>13.6</ele>
        <time>2012-08-03T20:30:09Z</time>
      </trkpt>
      <trkpt lat="59.4313688" lon="17.8457673">
        <ele>14.6</ele>
        <time>2012-08-03T20:30:13Z</time>
      </trkpt>
      <trkpt lat="59.4314649" lon="17.8457629">
        <ele>14.8</ele>
        <time>2012-08-03T20:30:15Z</time>
      </trkpt>
      <trkpt lat="59.4315916" lon="17.845751">
        <ele>15.2</ele>
        <time>2012-08-03T20:30:18Z</time>
      </trkpt>
      <trkpt lat="59.4317254" lon="17.8457364">
        <ele>16.2</ele>
        <time>2012-08-03T20:30:21Z</time>
      </trkpt>
      <trkpt lat="59.4317992" lon="17.84573">
        <ele>16.8</ele>
        <time>2012-08-03T20:30:23Z</time>
      </trkpt>
      <trkpt lat="59.4319142" lon="17.8457209">
        <ele>17.2</ele>
        <time>2012-08-03T20:30:26Z</time>
      </trkpt>
      <trkpt lat="59.4319496" lon="17.845723">
        <ele>17.2</ele>
        <time>2012-08-03T20:30:27Z</time>
      </trkpt>
      <trkpt lat="59.4319832" lon="17.8457296">
        <ele>17.8</ele>
        <time>2012-08-03T20:30:28Z</time>
      </trkpt>
      <trkpt lat="59.4321727" lon="17.8457057">
        <ele>20</ele>
        <time>2012-08-03T20:30:34Z</time>
      </trkpt>
      <trkpt lat="59.43238" lon="17.8456645">
        <ele>21</ele>
        <time>2012-08-03T20:30:40Z</time>
      </trkpt>
      <trkpt lat="59.4325677" lon="17.8455734">
        <ele>22</ele>
        <time>2012-08-03T20:30:45Z</time>
      </trkpt>
      <trkpt lat="59.4327622" lon="17.8454682">
        <ele>20.8</ele>
        <time>2012-08-03T20:30:51Z</time>
      </trkpt>
      <trkpt lat="59.4329447" lon="17.8454205">
        <ele>20.4</ele>
        <time>2012-08-03T20:30:57Z</time>
      </trkpt>
      <trkpt lat="59.4331276" lon="17.8453153">
        <ele>22.8</ele>
        <time>2012-08-03T20:31:03Z</time>
      </trkpt>
      <trkpt lat="59.4332957" lon="17.8451501">
        <ele>23.2</ele>
        <time>2012-08-03T20:31:08Z</time>
      </trkpt>
      <trkpt lat="59.4334756" lon="17.8449608">
        <ele>23.8</ele>
        <time>2012-08-03T20:31:14Z</time>
      </trkpt>
      <trkpt lat="59.4336591" lon="17.8447801">
        <ele>21.4</ele>
        <time>2012-08-03T20:31:20Z</time>
      </trkpt>
      <trkpt lat="59.4338383" lon="17.8446284">
        <ele>22.6</ele>
        <time>2012-08-03T20:31:26Z</time>
      </trkpt>
      <trkpt lat="59.4340211" lon="17.8444595">
        <ele>25</ele>
        <time>2012-08-03T20:31:32Z</time>
      </trkpt>
      <trkpt lat="59.4342098" lon="17.8442872">
        <ele>25.4</ele>
        <time>2012-08-03T20:31:38Z</time>
      </trkpt>
      <trkpt lat="59.4343893" lon="17.8441504">
        <ele>32.6</ele>
        <time>2012-08-03T20:31:43Z</time>
      </trkpt>
      <trkpt lat="59.4345676" lon="17.8439966">
        <ele>34.8</ele>
        <time>2012-08-03T20:31:49Z</time>
      </trkpt>
      <trkpt lat="59.4347392" lon="17.843843">
        <ele>36.4</ele>
        <time>2012-08-03T20:31:55Z</time>
      </trkpt>
      <trkpt lat="59.4349386" lon="17.8437746">
        <ele>38.6</ele>
        <time>2012-08-03T20:32:01Z</time>
      </trkpt>
      <trkpt lat="59.4351355" lon="17.8436611">
        <ele>35.4</ele>
        <time>2012-08-03T20:32:07Z</time>
      </trkpt>
      <trkpt lat="59.4353375" lon="17.843562">
        <ele>34.8</ele>
        <time>2012-08-03T20:32:13Z</time>
      </trkpt>
      <trkpt lat="59.4355318" lon="17.8435085">
        <ele>34.8</ele>
        <time>2012-08-03T20:32:19Z</time>
      </trkpt>
      <trkpt lat="59.4357223" lon="17.8434262">
        <ele>33.6</ele>
        <time>2012-08-03T20:32:25Z</time>
      </trkpt>
      <trkpt lat="59.435916" lon="17.8434182">
        <ele>32.6</ele>
        <time>2012-08-03T20:32:30Z</time>
      </trkpt>
      <trkpt lat="59.4361138" lon="17.8434287">
        <ele>33</ele>
        <time>2012-08-03T20:32:35Z</time>
      </trkpt>
      <trkpt lat="59.4363206" lon="17.843406">
        <ele>33.4</ele>
        <time>2012-08-03T20:32:40Z</time>
      </trkpt>
      <trkpt lat="59.4365258" lon="17.8433345">
        <ele>32.2</ele>
        <time>2012-08-03T20:32:46Z</time>
      </trkpt>
      <trkpt lat="59.4365517" lon="17.8429975">
        <ele>31</ele>
        <time>2012-08-03T20:32:53Z</time>
      </trkpt>
      <trkpt lat="59.436601" lon="17.8429096">
        <ele>31</ele>
        <time>2012-08-03T20:32:55Z</time>
      </trkpt>
      <trkpt lat="59.4366292" lon="17.8428931">
        <ele>31</ele>
        <time>2012-08-03T20:32:56Z</time>
      </trkpt>
      <trkpt lat="59.4367141" lon="17.842838">
        <ele>30.6</ele>
        <time>2012-08-03T20:32:59Z</time>
      </trkpt>
      <trkpt lat="59.4369013" lon="17.8427191">
        <ele>28.6</ele>
        <time>2012-08-03T20:33:05Z</time>
      </trkpt>
      <trkpt lat="59.4369104" lon="17.8427237">
        <ele>29</ele>
        <time>2012-08-03T20:33:06Z</time>
      </trkpt>
      <trkpt lat="59.4368956" lon="17.8426999">
        <ele>29.6</ele>
        <time>2012-08-03T20:33:10Z</time>
      </trkpt>
      <trkpt lat="59.4370242" lon="17.8425249">
        <ele>33.8</ele>
        <time>2012-08-03T20:33:19Z</time>
      </trkpt>
      <trkpt lat="59.4371905" lon="17.8423246">
        <ele>35.8</ele>
        <time>2012-08-03T20:33:25Z</time>
      </trkpt>
      <trkpt lat="59.4373433" lon="17.8421263">
        <ele>36.2</ele>
        <time>2012-08-03T20:33:30Z</time>
      </trkpt>
      <trkpt lat="59.4375193" lon="17.8419482">
        <ele>39</ele>
        <time>2012-08-03T20:33:36Z</time>
      </trkpt>
      <trkpt lat="59.4376761" lon="17.8417695">
        <ele>38.8</ele>
        <time>2012-08-03T20:33:41Z</time>
      </trkpt>
      <trkpt lat="59.4378596" lon="17.841541">
        <ele>39.2</ele>
        <time>2012-08-03T20:33:47Z</time>
      </trkpt>
      <trkpt lat="59.4380107" lon="17.8413314">
        <ele>38.4</ele>
        <time>2012-08-03T20:33:52Z</time>
      </trkpt>
      <trkpt lat="59.4381755" lon="17.841104">
        <ele>36.6</ele>
        <time>2012-08-03T20:33:57Z</time>
      </trkpt>
      <trkpt lat="59.4383118" lon="17.8408918">
        <ele>35.2</ele>
        <time>2012-08-03T20:34:01Z</time>
      </trkpt>
      <trkpt lat="59.4383496" lon="17.840848">
        <ele>34.8</ele>
        <time>2012-08-03T20:34:02Z</time>
      </trkpt>
      <trkpt lat="59.4385298" lon="17.8406864">
        <ele>34.2</ele>
        <time>2012-08-03T20:34:06Z</time>
      </trkpt>
      <trkpt lat="59.4387473" lon="17.8405178">
        <ele>32.4</ele>
        <time>2012-08-03T20:34:10Z</time>
      </trkpt>
      <trkpt lat="59.4388568" lon="17.8404337">
        <ele>30.6</ele>
        <time>2012-08-03T20:34:12Z</time>
      </trkpt>
      <trkpt lat="59.4389764" lon="17.8403563">
        <ele>29.2</ele>
        <time>2012-08-03T20:34:14Z</time>
      </trkpt>
      <trkpt lat="59.4391633" lon="17.8402259">
        <ele>28</ele>
        <time>2012-08-03T20:34:17Z</time>
      </trkpt>
      <trkpt lat="59.4393462" lon="17.8401214">
        <ele>24.8</ele>
        <time>2012-08-03T20:34:20Z</time>
      </trkpt>
      <trkpt lat="59.4395248" lon="17.8400048">
        <ele>25.4</ele>
        <time>2012-08-03T20:34:23Z</time>
      </trkpt>
      <trkpt lat="59.4397027" lon="17.8399026">
        <ele>26</ele>
        <time>2012-08-03T20:34:26Z</time>
      </trkpt>
      <trkpt lat="59.4399256" lon="17.8397944">
        <ele>23.4</ele>
        <time>2012-08-03T20:34:30Z</time>
      </trkpt>
      <trkpt lat="59.4401347" lon="17.8397057">
        <ele>20.8</ele>
        <time>2012-08-03T20:34:34Z</time>
      </trkpt>
      <trkpt lat="59.4401994" lon="17.8396961">
        <ele>22.8</ele>
        <time>2012-08-03T20:34:35Z</time>
      </trkpt>
      <trkpt lat="59.44032" lon="17.8396805">
        <ele>22.6</ele>
        <time>2012-08-03T20:34:37Z</time>
      </trkpt>
      <trkpt lat="59.4404857" lon="17.8396556">
        <ele>20.4</ele>
        <time>2012-08-03T20:34:40Z</time>
      </trkpt>
      <trkpt lat="59.4405362" lon="17.8396316">
        <ele>19.6</ele>
        <time>2012-08-03T20:34:41Z</time>
      </trkpt>
      <trkpt lat="59.4407118" lon="17.8395048">
        <ele>15.2</ele>
        <time>2012-08-03T20:34:45Z</time>
      </trkpt>
      <trkpt lat="59.4409038" lon="17.8393758">
        <ele>10</ele>
        <time>2012-08-03T20:34:50Z</time>
      </trkpt>
      <trkpt lat="59.4410205" lon="17.8393184">
        <ele>4.6</ele>
        <time>2012-08-03T20:34:53Z</time>
      </trkpt>
      <trkpt lat="59.4411043" lon="17.8392936">
        <ele>0.8</ele>
        <time>2012-08-03T20:34:55Z</time>
      </trkpt>
      <trkpt lat="59.4411516" lon="17.8392904">
        <ele>1</ele>
        <time>2012-08-03T20:34:56Z</time>
      </trkpt>
      <trkpt lat="59.4413116" lon="17.8392691">
        <ele>2</ele>
        <time>2012-08-03T20:34:59Z</time>
      </trkpt>
      <trkpt lat="59.4415176" lon="17.8392026">
        <ele>0.4</ele>
        <time>2012-08-03T20:35:03Z</time>
      </trkpt>
      <trkpt lat="59.441707" lon="17.8391596">
        <ele>7</ele>
        <time>2012-08-03T20:35:06Z</time>
      </trkpt>
      <trkpt lat="59.4418963" lon="17.839126">
        <ele>10.8</ele>
        <time>2012-08-03T20:35:09Z</time>
      </trkpt>
      <trkpt lat="59.4420062" lon="17.839104">
        <ele>11.8</ele>
        <time>2012-08-03T20:35:11Z</time>
      </trkpt>
      <trkpt lat="59.4421112" lon="17.8390724">
        <ele>14</ele>
        <time>2012-08-03T20:35:13Z</time>
      </trkpt>
      <trkpt lat="59.4423162" lon="17.8390023">
        <ele>16.4</ele>
        <time>2012-08-03T20:35:17Z</time>
      </trkpt>
      <trkpt lat="59.4424652" lon="17.8389681">
        <ele>17.8</ele>
        <time>2012-08-03T20:35:20Z</time>
      </trkpt>
      <trkpt lat="59.4425072" lon="17.8389459">
        <ele>18</ele>
        <time>2012-08-03T20:35:21Z</time>
      </trkpt>
      <trkpt lat="59.4426508" lon="17.8389154">
        <ele>19.2</ele>
        <time>2012-08-03T20:35:24Z</time>
      </trkpt>
      <trkpt lat="59.4426942" lon="17.8389091">
        <ele>19.4</ele>
        <time>2012-08-03T20:35:25Z</time>
      </trkpt>
      <trkpt lat="59.4428104" lon="17.8388764">
        <ele>19.6</ele>
        <time>2012-08-03T20:35:28Z</time>
      </trkpt>
      <trkpt lat="59.4428889" lon="17.8388545">
        <ele>20.4</ele>
        <time>2012-08-03T20:35:30Z</time>
      </trkpt>
      <trkpt lat="59.4429593" lon="17.8388449">
        <ele>19.8</ele>
        <time>2012-08-03T20:35:32Z</time>
      </trkpt>
      <trkpt lat="59.4429948" lon="17.8388377">
        <ele>19.8</ele>
        <time>2012-08-03T20:35:33Z</time>
      </trkpt>
      <trkpt lat="59.4430953" lon="17.838822">
        <ele>19.8</ele>
        <time>2012-08-03T20:35:36Z</time>
      </trkpt>
      <trkpt lat="59.4432904" lon="17.8388483">
        <ele>20.6</ele>
        <time>2012-08-03T20:35:41Z</time>
      </trkpt>
      <trkpt lat="59.4434876" lon="17.8388661">
        <ele>19.2</ele>
        <time>2012-08-03T20:35:46Z</time>
      </trkpt>
      <trkpt lat="59.4436199" lon="17.8388942">
        <ele>19.2</ele>
        <time>2012-08-03T20:35:49Z</time>
      </trkpt>
      <trkpt lat="59.443668" lon="17.838893">
        <ele>18.6</ele>
        <time>2012-08-03T20:35:50Z</time>
      </trkpt>
      <trkpt lat="59.4437582" lon="17.8388985">
        <ele>18.4</ele>
        <time>2012-08-03T20:35:52Z</time>
      </trkpt>
      <trkpt lat="59.4438815" lon="17.8389355">
        <ele>17.6</ele>
        <time>2012-08-03T20:35:55Z</time>
      </trkpt>
      <trkpt lat="59.4439291" lon="17.8389485">
        <ele>17.8</ele>
        <time>2012-08-03T20:35:56Z</time>
      </trkpt>
      <trkpt lat="59.4440669" lon="17.8390071">
        <ele>15.6</ele>
        <time>2012-08-03T20:35:59Z</time>
      </trkpt>
      <trkpt lat="59.4441198" lon="17.8390254">
        <ele>15.2</ele>
        <time>2012-08-03T20:36:00Z</time>
      </trkpt>
      <trkpt lat="59.4442228" lon="17.8390495">
        <ele>16</ele>
        <time>2012-08-03T20:36:02Z</time>
      </trkpt>
      <trkpt lat="59.444274" lon="17.8390742">
        <ele>16.2</ele>
        <time>2012-08-03T20:36:03Z</time>
      </trkpt>
      <trkpt lat="59.4443625" lon="17.8391097">
        <ele>15.6</ele>
        <time>2012-08-03T20:36:05Z</time>
      </trkpt>
      <trkpt lat="59.4444469" lon="17.8391544">
        <ele>13.6</ele>
        <time>2012-08-03T20:36:07Z</time>
      </trkpt>
      <trkpt lat="59.4444911" lon="17.8391686">
        <ele>12.6</ele>
        <time>2012-08-03T20:36:08Z</time>
      </trkpt>
      <trkpt lat="59.4445353" lon="17.8391764">
        <ele>12.2</ele>
        <time>2012-08-03T20:36:09Z</time>
      </trkpt>
      <trkpt lat="59.4446935" lon="17.8392188">
        <ele>12.6</ele>
        <time>2012-08-03T20:36:13Z</time>
      </trkpt>
      <trkpt lat="59.4447791" lon="17.8392277">
        <ele>15</ele>
        <time>2012-08-03T20:36:15Z</time>
      </trkpt>
      <trkpt lat="59.4448927" lon="17.8392567">
        <ele>17.6</ele>
        <time>2012-08-03T20:36:18Z</time>
      </trkpt>
      <trkpt lat="59.4449362" lon="17.8392598">
        <ele>19</ele>
        <time>2012-08-03T20:36:19Z</time>
      </trkpt>
      <trkpt lat="59.4450828" lon="17.8392448">
        <ele>20.8</ele>
        <time>2012-08-03T20:36:23Z</time>
      </trkpt>
      <trkpt lat="59.4452639" lon="17.8392164">
        <ele>23.6</ele>
        <time>2012-08-03T20:36:28Z</time>
      </trkpt>
      <trkpt lat="59.4454666" lon="17.8391665">
        <ele>25.8</ele>
        <time>2012-08-03T20:36:34Z</time>
      </trkpt>
      <trkpt lat="59.4456498" lon="17.8390936">
        <ele>27.6</ele>
        <time>2012-08-03T20:36:39Z</time>
      </trkpt>
      <trkpt lat="59.445842" lon="17.8389697">
        <ele>26.2</ele>
        <time>2012-08-03T20:36:44Z</time>
      </trkpt>
      <trkpt lat="59.446044" lon="17.8388578">
        <ele>25.4</ele>
        <time>2012-08-03T20:36:49Z</time>
      </trkpt>
      <trkpt lat="59.4461294" lon="17.8388037">
        <ele>25</ele>
        <time>2012-08-03T20:36:51Z</time>
      </trkpt>
      <trkpt lat="59.4462151" lon="17.8387376">
        <ele>25</ele>
        <time>2012-08-03T20:36:53Z</time>
      </trkpt>
      <trkpt lat="59.4463856" lon="17.8385768">
        <ele>22</ele>
        <time>2012-08-03T20:36:57Z</time>
      </trkpt>
      <trkpt lat="59.4464248" lon="17.8385413">
        <ele>21.8</ele>
        <time>2012-08-03T20:36:58Z</time>
      </trkpt>
      <trkpt lat="59.4465578" lon="17.838402">
        <ele>22</ele>
        <time>2012-08-03T20:37:01Z</time>
      </trkpt>
      <trkpt lat="59.4467507" lon="17.8382748">
        <ele>21.6</ele>
        <time>2012-08-03T20:37:05Z</time>
      </trkpt>
      <trkpt lat="59.4467948" lon="17.8382247">
        <ele>21.4</ele>
        <time>2012-08-03T20:37:06Z</time>
      </trkpt>
      <trkpt lat="59.4469334" lon="17.8380592">
        <ele>20.8</ele>
        <time>2012-08-03T20:37:09Z</time>
      </trkpt>
      <trkpt lat="59.4470671" lon="17.8378859">
        <ele>20.8</ele>
        <time>2012-08-03T20:37:12Z</time>
      </trkpt>
      <trkpt lat="59.4471162" lon="17.8378354">
        <ele>20.8</ele>
        <time>2012-08-03T20:37:13Z</time>
      </trkpt>
      <trkpt lat="59.4471644" lon="17.8377798">
        <ele>20.8</ele>
        <time>2012-08-03T20:37:14Z</time>
      </trkpt>
      <trkpt lat="59.4472961" lon="17.8376256">
        <ele>20.2</ele>
        <time>2012-08-03T20:37:17Z</time>
      </trkpt>
      <trkpt lat="59.4474691" lon="17.8374457">
        <ele>19.2</ele>
        <time>2012-08-03T20:37:21Z</time>
      </trkpt>
      <trkpt lat="59.4476434" lon="17.8373649">
        <ele>20.4</ele>
        <time>2012-08-03T20:37:25Z</time>
      </trkpt>
      <trkpt lat="59.4476822" lon="17.8373342">
        <ele>20.8</ele>
        <time>2012-08-03T20:37:26Z</time>
      </trkpt>
      <trkpt lat="59.4477526" lon="17.837265">
        <ele>21</ele>
        <time>2012-08-03T20:37:28Z</time>
      </trkpt>
      <trkpt lat="59.4478316" lon="17.8371888">
        <ele>21.2</ele>
        <time>2012-08-03T20:37:30Z</time>
      </trkpt>
      <trkpt lat="59.4480141" lon="17.8370012">
        <ele>21.6</ele>
        <time>2012-08-03T20:37:35Z</time>
      </trkpt>
      <trkpt lat="59.4481163" lon="17.8368972">
        <ele>21.2</ele>
        <time>2012-08-03T20:37:38Z</time>
      </trkpt>
      <trkpt lat="59.4481929" lon="17.8368604">
        <ele>21.2</ele>
        <time>2012-08-03T20:37:40Z</time>
      </trkpt>
      <trkpt lat="59.4483992" lon="17.8367089">
        <ele>20.4</ele>
        <time>2012-08-03T20:37:46Z</time>
      </trkpt>
      <trkpt lat="59.4485669" lon="17.8365667">
        <ele>22</ele>
        <time>2012-08-03T20:37:50Z</time>
      </trkpt>
      <trkpt lat="59.4487389" lon="17.8364184">
        <ele>23.6</ele>
        <time>2012-08-03T20:37:54Z</time>
      </trkpt>
      <trkpt lat="59.4489238" lon="17.8362331">
        <ele>26</ele>
        <time>2012-08-03T20:37:58Z</time>
      </trkpt>
      <trkpt lat="59.449089" lon="17.8360341">
        <ele>24.6</ele>
        <time>2012-08-03T20:38:02Z</time>
      </trkpt>
      <trkpt lat="59.4492489" lon="17.8358589">
        <ele>23</ele>
        <time>2012-08-03T20:38:06Z</time>
      </trkpt>
      <trkpt lat="59.4493149" lon="17.8357658">
        <ele>22.6</ele>
        <time>2012-08-03T20:38:08Z</time>
      </trkpt>
      <trkpt lat="59.4494165" lon="17.8356359">
        <ele>25</ele>
        <time>2012-08-03T20:38:11Z</time>
      </trkpt>
      <trkpt lat="59.4494511" lon="17.8356234">
        <ele>25.4</ele>
        <time>2012-08-03T20:38:12Z</time>
      </trkpt>
      <trkpt lat="59.4495207" lon="17.8355907">
        <ele>26</ele>
        <time>2012-08-03T20:38:14Z</time>
      </trkpt>
      <trkpt lat="59.4496143" lon="17.8354844">
        <ele>26.6</ele>
        <time>2012-08-03T20:38:17Z</time>
      </trkpt>
      <trkpt lat="59.4497727" lon="17.8352372">
        <ele>26.6</ele>
        <time>2012-08-03T20:38:22Z</time>
      </trkpt>
      <trkpt lat="59.4498997" lon="17.8349119">
        <ele>26.4</ele>
        <time>2012-08-03T20:38:27Z</time>
      </trkpt>
      <trkpt lat="59.4500897" lon="17.8348276">
        <ele>26.8</ele>
        <time>2012-08-03T20:38:33Z</time>
      </trkpt>
      <trkpt lat="59.4502649" lon="17.8346769">
        <ele>28.2</ele>
        <time>2012-08-03T20:38:38Z</time>
      </trkpt>
      <trkpt lat="59.4503793" lon="17.8343794">
        <ele>28.6</ele>
        <time>2012-08-03T20:38:43Z</time>
      </trkpt>
      <trkpt lat="59.450502" lon="17.8342751">
        <ele>29.4</ele>
        <time>2012-08-03T20:38:47Z</time>
      </trkpt>
      <trkpt lat="59.4505665" lon="17.8341924">
        <ele>29.8</ele>
        <time>2012-08-03T20:38:49Z</time>
      </trkpt>
      <trkpt lat="59.4507328" lon="17.8339177">
        <ele>30.4</ele>
        <time>2012-08-03T20:38:54Z</time>
      </trkpt>
      <trkpt lat="59.4508426" lon="17.8337459">
        <ele>29.8</ele>
        <time>2012-08-03T20:38:57Z</time>
      </trkpt>
      <trkpt lat="59.4508837" lon="17.8337026">
        <ele>29.8</ele>
        <time>2012-08-03T20:38:58Z</time>
      </trkpt>
      <trkpt lat="59.4509956" lon="17.8335521">
        <ele>29.2</ele>
        <time>2012-08-03T20:39:01Z</time>
      </trkpt>
      <trkpt lat="59.451032" lon="17.8334903">
        <ele>29.4</ele>
        <time>2012-08-03T20:39:02Z</time>
      </trkpt>
      <trkpt lat="59.4510622" lon="17.8334268">
        <ele>28.6</ele>
        <time>2012-08-03T20:39:03Z</time>
      </trkpt>
      <trkpt lat="59.4511797" lon="17.8331601">
        <ele>28.4</ele>
        <time>2012-08-03T20:39:07Z</time>
      </trkpt>
      <trkpt lat="59.451207" lon="17.8330908">
        <ele>28.2</ele>
        <time>2012-08-03T20:39:08Z</time>
      </trkpt>
      <trkpt lat="59.4513143" lon="17.8328266">
        <ele>27.2</ele>
        <time>2012-08-03T20:39:12Z</time>
      </trkpt>
      <trkpt lat="59.4513963" lon="17.8326439">
        <ele>26.4</ele>
        <time>2012-08-03T20:39:15Z</time>
      </trkpt>
      <trkpt lat="59.4514512" lon="17.8325047">
        <ele>25.4</ele>
        <time>2012-08-03T20:39:17Z</time>
      </trkpt>
      <trkpt lat="59.4515951" lon="17.8321978">
        <ele>25</ele>
        <time>2012-08-03T20:39:22Z</time>
      </trkpt>
      <trkpt lat="59.4516232" lon="17.8321391">
        <ele>25</ele>
        <time>2012-08-03T20:39:23Z</time>
      </trkpt>
      <trkpt lat="59.4517364" lon="17.8319225">
        <ele>23.8</ele>
        <time>2012-08-03T20:39:27Z</time>
      </trkpt>
      <trkpt lat="59.4517919" lon="17.8317964">
        <ele>23.8</ele>
        <time>2012-08-03T20:39:29Z</time>
      </trkpt>
      <trkpt lat="59.4518764" lon="17.8316098">
        <ele>23.8</ele>
        <time>2012-08-03T20:39:32Z</time>
      </trkpt>
      <trkpt lat="59.4519091" lon="17.8315518">
        <ele>24.2</ele>
        <time>2012-08-03T20:39:33Z</time>
      </trkpt>
      <trkpt lat="59.4519402" lon="17.8314851">
        <ele>24.2</ele>
        <time>2012-08-03T20:39:34Z</time>
      </trkpt>
      <trkpt lat="59.4519961" lon="17.8313504">
        <ele>24</ele>
        <time>2012-08-03T20:39:36Z</time>
      </trkpt>
      <trkpt lat="59.4521392" lon="17.8310871">
        <ele>24.2</ele>
        <time>2012-08-03T20:39:40Z</time>
      </trkpt>
      <trkpt lat="59.4522422" lon="17.8308701">
        <ele>23.8</ele>
        <time>2012-08-03T20:39:43Z</time>
      </trkpt>
      <trkpt lat="59.4522769" lon="17.8308026">
        <ele>23.2</ele>
        <time>2012-08-03T20:39:44Z</time>
      </trkpt>
      <trkpt lat="59.4524141" lon="17.8305255">
        <ele>24</ele>
        <time>2012-08-03T20:39:48Z</time>
      </trkpt>
      <trkpt lat="59.452449" lon="17.8304658">
        <ele>24.4</ele>
        <time>2012-08-03T20:39:49Z</time>
      </trkpt>
      <trkpt lat="59.4525592" lon="17.8302939">
        <ele>23</ele>
        <time>2012-08-03T20:39:52Z</time>
      </trkpt>
      <trkpt lat="59.4526333" lon="17.8301878">
        <ele>23</ele>
        <time>2012-08-03T20:39:54Z</time>
      </trkpt>
      <trkpt lat="59.4527022" lon="17.8300708">
        <ele>22.8</ele>
        <time>2012-08-03T20:39:56Z</time>
      </trkpt>
      <trkpt lat="59.4528492" lon="17.8297937">
        <ele>22.6</ele>
        <time>2012-08-03T20:40:01Z</time>
      </trkpt>
      <trkpt lat="59.4529922" lon="17.8295252">
        <ele>22.8</ele>
        <time>2012-08-03T20:40:06Z</time>
      </trkpt>
      <trkpt lat="59.4530268" lon="17.8294692">
        <ele>22.8</ele>
        <time>2012-08-03T20:40:07Z</time>
      </trkpt>
      <trkpt lat="59.4531357" lon="17.8293062">
        <ele>22.8</ele>
        <time>2012-08-03T20:40:10Z</time>
      </trkpt>
      <trkpt lat="59.4532892" lon="17.8290912">
        <ele>22.4</ele>
        <time>2012-08-03T20:40:14Z</time>
      </trkpt>
      <trkpt lat="59.4534647" lon="17.8288317">
        <ele>22</ele>
        <time>2012-08-03T20:40:19Z</time>
      </trkpt>
      <trkpt lat="59.4535" lon="17.8287903">
        <ele>22</ele>
        <time>2012-08-03T20:40:20Z</time>
      </trkpt>
      <trkpt lat="59.4536615" lon="17.8286747">
        <ele>22</ele>
        <time>2012-08-03T20:40:24Z</time>
      </trkpt>
      <trkpt lat="59.4537412" lon="17.8286117">
        <ele>21.8</ele>
        <time>2012-08-03T20:40:26Z</time>
      </trkpt>
      <trkpt lat="59.453855" lon="17.8284967">
        <ele>21.2</ele>
        <time>2012-08-03T20:40:29Z</time>
      </trkpt>
      <trkpt lat="59.454045" lon="17.8283325">
        <ele>20.8</ele>
        <time>2012-08-03T20:40:34Z</time>
      </trkpt>
      <trkpt lat="59.4541236" lon="17.8282702">
        <ele>21</ele>
        <time>2012-08-03T20:40:36Z</time>
      </trkpt>
      <trkpt lat="59.454238" lon="17.828163">
        <ele>20.6</ele>
        <time>2012-08-03T20:40:39Z</time>
      </trkpt>
      <trkpt lat="59.4543561" lon="17.8280789">
        <ele>20.6</ele>
        <time>2012-08-03T20:40:42Z</time>
      </trkpt>
      <trkpt lat="59.4544458" lon="17.8280226">
        <ele>20.8</ele>
        <time>2012-08-03T20:40:44Z</time>
      </trkpt>
      <trkpt lat="59.4544954" lon="17.827991">
        <ele>21.2</ele>
        <time>2012-08-03T20:40:45Z</time>
      </trkpt>
      <trkpt lat="59.4546388" lon="17.827916">
        <ele>22</ele>
        <time>2012-08-03T20:40:48Z</time>
      </trkpt>
      <trkpt lat="59.4547301" lon="17.8278598">
        <ele>22.6</ele>
        <time>2012-08-03T20:40:50Z</time>
      </trkpt>
      <trkpt lat="59.4548176" lon="17.8277942">
        <ele>23.4</ele>
        <time>2012-08-03T20:40:52Z</time>
      </trkpt>
      <trkpt lat="59.4549969" lon="17.8276781">
        <ele>24.4</ele>
        <time>2012-08-03T20:40:56Z</time>
      </trkpt>
      <trkpt lat="59.4551423" lon="17.8275905">
        <ele>24.4</ele>
        <time>2012-08-03T20:40:59Z</time>
      </trkpt>
      <trkpt lat="59.4551964" lon="17.8275704">
        <ele>24.8</ele>
        <time>2012-08-03T20:41:00Z</time>
      </trkpt>
      <trkpt lat="59.455357" lon="17.8275191">
        <ele>24.6</ele>
        <time>2012-08-03T20:41:03Z</time>
      </trkpt>
      <trkpt lat="59.4554046" lon="17.8274852">
        <ele>24.2</ele>
        <time>2012-08-03T20:41:04Z</time>
      </trkpt>
      <trkpt lat="59.4555015" lon="17.8274149">
        <ele>24.4</ele>
        <time>2012-08-03T20:41:06Z</time>
      </trkpt>
      <trkpt lat="59.4555981" lon="17.8273558">
        <ele>23.2</ele>
        <time>2012-08-03T20:41:08Z</time>
      </trkpt>
      <trkpt lat="59.4557873" lon="17.8272273">
        <ele>22</ele>
        <time>2012-08-03T20:41:12Z</time>
      </trkpt>
      <trkpt lat="59.4558842" lon="17.8271796">
        <ele>21.6</ele>
        <time>2012-08-03T20:41:14Z</time>
      </trkpt>
      <trkpt lat="59.4559782" lon="17.8271295">
        <ele>21.2</ele>
        <time>2012-08-03T20:41:16Z</time>
      </trkpt>
      <trkpt lat="59.4560673" lon="17.8270679">
        <ele>20.4</ele>
        <time>2012-08-03T20:41:18Z</time>
      </trkpt>
      <trkpt lat="59.4561655" lon="17.8270234">
        <ele>21.4</ele>
        <time>2012-08-03T20:41:20Z</time>
      </trkpt>
      <trkpt lat="59.4562608" lon="17.8269911">
        <ele>21.2</ele>
        <time>2012-08-03T20:41:22Z</time>
      </trkpt>
      <trkpt lat="59.4563588" lon="17.826962">
        <ele>21.6</ele>
        <time>2012-08-03T20:41:24Z</time>
      </trkpt>
      <trkpt lat="59.4564508" lon="17.8269141">
        <ele>22</ele>
        <time>2012-08-03T20:41:26Z</time>
      </trkpt>
      <trkpt lat="59.456549" lon="17.826768">
        <ele>22.2</ele>
        <time>2012-08-03T20:41:29Z</time>
      </trkpt>
      <trkpt lat="59.456607" lon="17.8264359">
        <ele>22.4</ele>
        <time>2012-08-03T20:41:34Z</time>
      </trkpt>
      <trkpt lat="59.4566296" lon="17.8262971">
        <ele>22.4</ele>
        <time>2012-08-03T20:41:36Z</time>
      </trkpt>
      <trkpt lat="59.4566557" lon="17.8260253">
        <ele>22.2</ele>
        <time>2012-08-03T20:41:40Z</time>
      </trkpt>
      <trkpt lat="59.4566751" lon="17.8256543">
        <ele>20.6</ele>
        <time>2012-08-03T20:41:45Z</time>
      </trkpt>
      <trkpt lat="59.4567018" lon="17.825276">
        <ele>20.2</ele>
        <time>2012-08-03T20:41:50Z</time>
      </trkpt>
      <trkpt lat="59.456738" lon="17.8248423">
        <ele>18.8</ele>
        <time>2012-08-03T20:41:55Z</time>
      </trkpt>
      <trkpt lat="59.4567648" lon="17.8245478">
        <ele>16.8</ele>
        <time>2012-08-03T20:41:58Z</time>
      </trkpt>
      <trkpt lat="59.4567691" lon="17.8244489">
        <ele>16.6</ele>
        <time>2012-08-03T20:41:59Z</time>
      </trkpt>
      <trkpt lat="59.4567908" lon="17.8240489">
        <ele>15.8</ele>
        <time>2012-08-03T20:42:03Z</time>
      </trkpt>
      <trkpt lat="59.4567981" lon="17.8239499">
        <ele>15.8</ele>
        <time>2012-08-03T20:42:04Z</time>
      </trkpt>
      <trkpt lat="59.4568279" lon="17.8236812">
        <ele>15.8</ele>
        <time>2012-08-03T20:42:07Z</time>
      </trkpt>
      <trkpt lat="59.4568766" lon="17.8233284">
        <ele>17.2</ele>
        <time>2012-08-03T20:42:11Z</time>
      </trkpt>
      <trkpt lat="59.4569373" lon="17.8229622">
        <ele>17.2</ele>
        <time>2012-08-03T20:42:16Z</time>
      </trkpt>
      <trkpt lat="59.4569825" lon="17.8227086">
        <ele>16.2</ele>
        <time>2012-08-03T20:42:20Z</time>
      </trkpt>
      <trkpt lat="59.4569954" lon="17.8226307">
        <ele>16.4</ele>
        <time>2012-08-03T20:42:21Z</time>
      </trkpt>
      <trkpt lat="59.4570872" lon="17.8222658">
        <ele>15.2</ele>
        <time>2012-08-03T20:42:26Z</time>
      </trkpt>
      <trkpt lat="59.4571665" lon="17.8218473">
        <ele>15.2</ele>
        <time>2012-08-03T20:42:31Z</time>
      </trkpt>
      <trkpt lat="59.4572385" lon="17.8214271">
        <ele>16</ele>
        <time>2012-08-03T20:42:36Z</time>
      </trkpt>
      <trkpt lat="59.4572832" lon="17.8211871">
        <ele>16.2</ele>
        <time>2012-08-03T20:42:39Z</time>
      </trkpt>
      <trkpt lat="59.4573098" lon="17.8210238">
        <ele>16.4</ele>
        <time>2012-08-03T20:42:41Z</time>
      </trkpt>
      <trkpt lat="59.4573948" lon="17.8206162">
        <ele>16.6</ele>
        <time>2012-08-03T20:42:46Z</time>
      </trkpt>
      <trkpt lat="59.4574621" lon="17.82027">
        <ele>16.6</ele>
        <time>2012-08-03T20:42:50Z</time>
      </trkpt>
      <trkpt lat="59.4574999" lon="17.8200789">
        <ele>16.2</ele>
        <time>2012-08-03T20:42:52Z</time>
      </trkpt>
      <trkpt lat="59.4575317" lon="17.8198904">
        <ele>16.4</ele>
        <time>2012-08-03T20:42:54Z</time>
      </trkpt>
      <trkpt lat="59.4575527" lon="17.8196277">
        <ele>16</ele>
        <time>2012-08-03T20:42:57Z</time>
      </trkpt>
      <trkpt lat="59.4575465" lon="17.8194647">
        <ele>15.8</ele>
        <time>2012-08-03T20:42:59Z</time>
      </trkpt>
      <trkpt lat="59.4575356" lon="17.8193194">
        <ele>15.6</ele>
        <time>2012-08-03T20:43:01Z</time>
      </trkpt>
      <trkpt lat="59.4575194" lon="17.8190988">
        <ele>14.8</ele>
        <time>2012-08-03T20:43:04Z</time>
      </trkpt>
      <trkpt lat="59.4575132" lon="17.8190228">
        <ele>15.2</ele>
        <time>2012-08-03T20:43:05Z</time>
      </trkpt>
      <trkpt lat="59.4575013" lon="17.8187174">
        <ele>16</ele>
        <time>2012-08-03T20:43:09Z</time>
      </trkpt>
      <trkpt lat="59.4574962" lon="17.8186392">
        <ele>16.2</ele>
        <time>2012-08-03T20:43:10Z</time>
      </trkpt>
      <trkpt lat="59.4574987" lon="17.8183093">
        <ele>17.4</ele>
        <time>2012-08-03T20:43:15Z</time>
      </trkpt>
      <trkpt lat="59.4575381" lon="17.8180747">
        <ele>18.4</ele>
        <time>2012-08-03T20:43:19Z</time>
      </trkpt>
      <trkpt lat="59.457577" lon="17.8179795">
        <ele>19</ele>
        <time>2012-08-03T20:43:21Z</time>
      </trkpt>
      <trkpt lat="59.4576772" lon="17.8176706">
        <ele>19.4</ele>
        <time>2012-08-03T20:43:26Z</time>
      </trkpt>
      <trkpt lat="59.4576072" lon="17.8173194">
        <ele>19.8</ele>
        <time>2012-08-03T20:43:31Z</time>
      </trkpt>
      <trkpt lat="59.4575647" lon="17.8171853">
        <ele>19.6</ele>
        <time>2012-08-03T20:43:33Z</time>
      </trkpt>
      <trkpt lat="59.4574993" lon="17.8169802">
        <ele>20</ele>
        <time>2012-08-03T20:43:37Z</time>
      </trkpt>
      <trkpt lat="59.4574501" lon="17.8168428">
        <ele>19.6</ele>
        <time>2012-08-03T20:43:38Z</time>
      </trkpt>
      <trkpt lat="59.4573798" lon="17.8166802">
        <ele>18.4</ele>
        <time>2012-08-03T20:43:41Z</time>
      </trkpt>
      <trkpt lat="59.457234" lon="17.8164409">
        <ele>15.4</ele>
        <time>2012-08-03T20:43:46Z</time>
      </trkpt>
      <trkpt lat="59.4570792" lon="17.8161369">
        <ele>15.8</ele>
        <time>2012-08-03T20:43:51Z</time>
      </trkpt>
      <trkpt lat="59.4569509" lon="17.8159241">
        <ele>17.6</ele>
        <time>2012-08-03T20:43:55Z</time>
      </trkpt>
      <trkpt lat="59.4569219" lon="17.8158771">
        <ele>17.8</ele>
        <time>2012-08-03T20:43:56Z</time>
      </trkpt>
      <trkpt lat="59.456855" lon="17.8157718">
        <ele>17.2</ele>
        <time>2012-08-03T20:43:59Z</time>
      </trkpt>
      <trkpt lat="59.4567189" lon="17.8155604">
        <ele>15</ele>
        <time>2012-08-03T20:44:02Z</time>
      </trkpt>
      <trkpt lat="59.4566583" lon="17.8154589">
        <ele>15.2</ele>
        <time>2012-08-03T20:44:05Z</time>
      </trkpt>
      <trkpt lat="59.4566002" lon="17.8153758">
        <ele>15</ele>
        <time>2012-08-03T20:44:07Z</time>
      </trkpt>
      <trkpt lat="59.4565743" lon="17.8153301">
        <ele>14.8</ele>
        <time>2012-08-03T20:44:08Z</time>
      </trkpt>
      <trkpt lat="59.4565128" lon="17.8152298">
        <ele>15.8</ele>
        <time>2012-08-03T20:44:10Z</time>
      </trkpt>
      <trkpt lat="59.456458" lon="17.815164">
        <ele>14.6</ele>
        <time>2012-08-03T20:44:12Z</time>
      </trkpt>
      <trkpt lat="59.4563102" lon="17.8148967">
        <ele>14.4</ele>
        <time>2012-08-03T20:44:17Z</time>
      </trkpt>
      <trkpt lat="59.456138" lon="17.8146129">
        <ele>15.8</ele>
        <time>2012-08-03T20:44:22Z</time>
      </trkpt>
      <trkpt lat="59.4560977" lon="17.8145528">
        <ele>16.6</ele>
        <time>2012-08-03T20:44:23Z</time>
      </trkpt>
      <trkpt lat="59.4560382" lon="17.8144363">
        <ele>17</ele>
        <time>2012-08-03T20:44:25Z</time>
      </trkpt>
      <trkpt lat="59.4559972" lon="17.8143072">
        <ele>17.8</ele>
        <time>2012-08-03T20:44:27Z</time>
      </trkpt>
      <trkpt lat="59.4559439" lon="17.8141086">
        <ele>17.2</ele>
        <time>2012-08-03T20:44:30Z</time>
      </trkpt>
      <trkpt lat="59.4559092" lon="17.8139755">
        <ele>17.6</ele>
        <time>2012-08-03T20:44:32Z</time>
      </trkpt>
      <trkpt lat="59.4557647" lon="17.813711">
        <ele>17</ele>
        <time>2012-08-03T20:44:37Z</time>
      </trkpt>
      <trkpt lat="59.4557197" lon="17.8135956">
        <ele>16.8</ele>
        <time>2012-08-03T20:44:38Z</time>
      </trkpt>
      <trkpt lat="59.4556461" lon="17.813372">
        <ele>16</ele>
        <time>2012-08-03T20:44:42Z</time>
      </trkpt>
      <trkpt lat="59.4556231" lon="17.8132974">
        <ele>16</ele>
        <time>2012-08-03T20:44:43Z</time>
      </trkpt>
      <trkpt lat="59.455575" lon="17.8130837">
        <ele>15.2</ele>
        <time>2012-08-03T20:44:45Z</time>
      </trkpt>
      <trkpt lat="59.4555606" lon="17.8130112">
        <ele>15</ele>
        <time>2012-08-03T20:44:46Z</time>
      </trkpt>
      <trkpt lat="59.4555177" lon="17.8128869">
        <ele>15</ele>
        <time>2012-08-03T20:44:49Z</time>
      </trkpt>
      <trkpt lat="59.4554627" lon="17.8126834">
        <ele>15</ele>
        <time>2012-08-03T20:44:52Z</time>
      </trkpt>
      <trkpt lat="59.4554272" lon="17.8125243">
        <ele>15.6</ele>
        <time>2012-08-03T20:44:54Z</time>
      </trkpt>
      <trkpt lat="59.4553762" lon="17.8123239">
        <ele>16.4</ele>
        <time>2012-08-03T20:44:57Z</time>
      </trkpt>
      <trkpt lat="59.4552726" lon="17.8119705">
        <ele>16.8</ele>
        <time>2012-08-03T20:45:03Z</time>
      </trkpt>
      <trkpt lat="59.4552107" lon="17.8115805">
        <ele>16.6</ele>
        <time>2012-08-03T20:45:09Z</time>
      </trkpt>
      <trkpt lat="59.4551346" lon="17.8112156">
        <ele>17.2</ele>
        <time>2012-08-03T20:45:15Z</time>
      </trkpt>
      <trkpt lat="59.4550566" lon="17.8108859">
        <ele>15.8</ele>
        <time>2012-08-03T20:45:20Z</time>
      </trkpt>
      <trkpt lat="59.4549814" lon="17.8104931">
        <ele>15.6</ele>
        <time>2012-08-03T20:45:26Z</time>
      </trkpt>
      <trkpt lat="59.4548825" lon="17.8101531">
        <ele>17</ele>
        <time>2012-08-03T20:45:31Z</time>
      </trkpt>
      <trkpt lat="59.454765" lon="17.8098664">
        <ele>15.4</ele>
        <time>2012-08-03T20:45:36Z</time>
      </trkpt>
      <trkpt lat="59.4546391" lon="17.8095616">
        <ele>15.8</ele>
        <time>2012-08-03T20:45:41Z</time>
      </trkpt>
      <trkpt lat="59.4545222" lon="17.8092167">
        <ele>16.2</ele>
        <time>2012-08-03T20:45:47Z</time>
      </trkpt>
      <trkpt lat="59.4543938" lon="17.8089483">
        <ele>15.4</ele>
        <time>2012-08-03T20:45:52Z</time>
      </trkpt>
      <trkpt lat="59.4542381" lon="17.808691">
        <ele>15</ele>
        <time>2012-08-03T20:45:56Z</time>
      </trkpt>
      <trkpt lat="59.4541381" lon="17.8085231">
        <ele>15.4</ele>
        <time>2012-08-03T20:46:00Z</time>
      </trkpt>
      <trkpt lat="59.4540757" lon="17.8084238">
        <ele>15.6</ele>
        <time>2012-08-03T20:46:02Z</time>
      </trkpt>
      <trkpt lat="59.4539811" lon="17.8082836">
        <ele>15.6</ele>
        <time>2012-08-03T20:46:05Z</time>
      </trkpt>
      <trkpt lat="59.4539524" lon="17.8082237">
        <ele>15.4</ele>
        <time>2012-08-03T20:46:06Z</time>
      </trkpt>
      <trkpt lat="59.453926" lon="17.8081574">
        <ele>15.4</ele>
        <time>2012-08-03T20:46:07Z</time>
      </trkpt>
      <trkpt lat="59.4538668" lon="17.8080461">
        <ele>15.6</ele>
        <time>2012-08-03T20:46:09Z</time>
      </trkpt>
      <trkpt lat="59.4537685" lon="17.8079255">
        <ele>15.6</ele>
        <time>2012-08-03T20:46:12Z</time>
      </trkpt>
      <trkpt lat="59.4536998" lon="17.8078457">
        <ele>15.2</ele>
        <time>2012-08-03T20:46:14Z</time>
      </trkpt>
      <trkpt lat="59.4536623" lon="17.8078181">
        <ele>15</ele>
        <time>2012-08-03T20:46:15Z</time>
      </trkpt>
      <trkpt lat="59.4536035" lon="17.8077332">
        <ele>14.2</ele>
        <time>2012-08-03T20:46:17Z</time>
      </trkpt>
      <trkpt lat="59.4535004" lon="17.8074005">
        <ele>13.4</ele>
        <time>2012-08-03T20:46:22Z</time>
      </trkpt>
      <trkpt lat="59.4534481" lon="17.8069919">
        <ele>13.8</ele>
        <time>2012-08-03T20:46:28Z</time>
      </trkpt>
      <trkpt lat="59.4535511" lon="17.8066729">
        <ele>15.8</ele>
        <time>2012-08-03T20:46:35Z</time>
      </trkpt>
      <trkpt lat="59.4536204" lon="17.8065084">
        <ele>16.8</ele>
        <time>2012-08-03T20:46:39Z</time>
      </trkpt>
      <trkpt lat="59.4536874" lon="17.8063821">
        <ele>16.8</ele>
        <time>2012-08-03T20:46:42Z</time>
      </trkpt>
      <trkpt lat="59.4537428" lon="17.8061955">
        <ele>18.2</ele>
        <time>2012-08-03T20:46:45Z</time>
      </trkpt>
      <trkpt lat="59.453806" lon="17.8060513">
        <ele>19.2</ele>
        <time>2012-08-03T20:46:48Z</time>
      </trkpt>
      <trkpt lat="59.4539416" lon="17.80574">
        <ele>20.4</ele>
        <time>2012-08-03T20:46:54Z</time>
      </trkpt>
      <trkpt lat="59.4540864" lon="17.8054337">
        <ele>20.8</ele>
        <time>2012-08-03T20:46:59Z</time>
      </trkpt>
      <trkpt lat="59.4542306" lon="17.8051322">
        <ele>22.4</ele>
        <time>2012-08-03T20:47:04Z</time>
      </trkpt>
      <trkpt lat="59.4542883" lon="17.805036">
        <ele>23.2</ele>
        <time>2012-08-03T20:47:06Z</time>
      </trkpt>
      <trkpt lat="59.4543573" lon="17.8048774">
        <ele>23.4</ele>
        <time>2012-08-03T20:47:09Z</time>
      </trkpt>
      <trkpt lat="59.4545313" lon="17.8046423">
        <ele>22.4</ele>
        <time>2012-08-03T20:47:14Z</time>
      </trkpt>
      <trkpt lat="59.4547073" lon="17.8044605">
        <ele>21.4</ele>
        <time>2012-08-03T20:47:18Z</time>
      </trkpt>
      <trkpt lat="59.454802" lon="17.8043799">
        <ele>21.6</ele>
        <time>2012-08-03T20:47:20Z</time>
      </trkpt>
      <trkpt lat="59.4548908" lon="17.804324">
        <ele>21.4</ele>
        <time>2012-08-03T20:47:22Z</time>
      </trkpt>
      <trkpt lat="59.4550794" lon="17.8042455">
        <ele>21.4</ele>
        <time>2012-08-03T20:47:27Z</time>
      </trkpt>
      <trkpt lat="59.4551135" lon="17.8042388">
        <ele>21.2</ele>
        <time>2012-08-03T20:47:28Z</time>
      </trkpt>
      <trkpt lat="59.4552725" lon="17.8042545">
        <ele>21.6</ele>
        <time>2012-08-03T20:47:33Z</time>
      </trkpt>
      <trkpt lat="59.4554663" lon="17.8043433">
        <ele>21</ele>
        <time>2012-08-03T20:47:39Z</time>
      </trkpt>
      <trkpt lat="59.4556433" lon="17.8044576">
        <ele>20.2</ele>
        <time>2012-08-03T20:47:44Z</time>
      </trkpt>
      <trkpt lat="59.4558224" lon="17.8045801">
        <ele>19.2</ele>
        <time>2012-08-03T20:47:49Z</time>
      </trkpt>
      <trkpt lat="59.4559977" lon="17.8047203">
        <ele>17</ele>
        <time>2012-08-03T20:47:54Z</time>
      </trkpt>
      <trkpt lat="59.456163" lon="17.8048308">
        <ele>14.6</ele>
        <time>2012-08-03T20:47:58Z</time>
      </trkpt>
      <trkpt lat="59.456207" lon="17.8048668">
        <ele>14.6</ele>
        <time>2012-08-03T20:47:59Z</time>
      </trkpt>
      <trkpt lat="59.4563195" lon="17.8049594">
        <ele>12.6</ele>
        <time>2012-08-03T20:48:02Z</time>
      </trkpt>
      <trkpt lat="59.4563658" lon="17.8049705">
        <ele>12</ele>
        <time>2012-08-03T20:48:03Z</time>
      </trkpt>
      <trkpt lat="59.45651" lon="17.8050913">
        <ele>10</ele>
        <time>2012-08-03T20:48:07Z</time>
      </trkpt>
      <trkpt lat="59.4565516" lon="17.8051229">
        <ele>10.4</ele>
        <time>2012-08-03T20:48:08Z</time>
      </trkpt>
      <trkpt lat="59.4567478" lon="17.8052468">
        <ele>8.6</ele>
        <time>2012-08-03T20:48:13Z</time>
      </trkpt>
      <trkpt lat="59.4567908" lon="17.8052675">
        <ele>8.8</ele>
        <time>2012-08-03T20:48:14Z</time>
      </trkpt>
      <trkpt lat="59.4568281" lon="17.8052954">
        <ele>8</ele>
        <time>2012-08-03T20:48:15Z</time>
      </trkpt>
      <trkpt lat="59.4569044" lon="17.8053482">
        <ele>6.8</ele>
        <time>2012-08-03T20:48:17Z</time>
      </trkpt>
      <trkpt lat="59.4569488" lon="17.8053648">
        <ele>7.4</ele>
        <time>2012-08-03T20:48:18Z</time>
      </trkpt>
      <trkpt lat="59.456989" lon="17.8053871">
        <ele>7.6</ele>
        <time>2012-08-03T20:48:19Z</time>
      </trkpt>
      <trkpt lat="59.4571413" lon="17.8054731">
        <ele>10.6</ele>
        <time>2012-08-03T20:48:23Z</time>
      </trkpt>
      <trkpt lat="59.4572654" lon="17.8053224">
        <ele>14.4</ele>
        <time>2012-08-03T20:48:28Z</time>
      </trkpt>
      <trkpt lat="59.4572889" lon="17.8052773">
        <ele>15.6</ele>
        <time>2012-08-03T20:48:29Z</time>
      </trkpt>
      <trkpt lat="59.4574202" lon="17.8050375">
        <ele>18.4</ele>
        <time>2012-08-03T20:48:34Z</time>
      </trkpt>
      <trkpt lat="59.4574777" lon="17.8049414">
        <ele>19.6</ele>
        <time>2012-08-03T20:48:36Z</time>
      </trkpt>
      <trkpt lat="59.4575935" lon="17.8048212">
        <ele>21.8</ele>
        <time>2012-08-03T20:48:39Z</time>
      </trkpt>
      <trkpt lat="59.4577674" lon="17.8046351">
        <ele>22.2</ele>
        <time>2012-08-03T20:48:43Z</time>
      </trkpt>
      <trkpt lat="59.4578618" lon="17.8045327">
        <ele>23.2</ele>
        <time>2012-08-03T20:48:45Z</time>
      </trkpt>
      <trkpt lat="59.4579712" lon="17.8044439">
        <ele>23.2</ele>
        <time>2012-08-03T20:48:47Z</time>
      </trkpt>
      <trkpt lat="59.4580898" lon="17.804388">
        <ele>23.4</ele>
        <time>2012-08-03T20:48:49Z</time>
      </trkpt>
      <trkpt lat="59.4581471" lon="17.8043801">
        <ele>22.6</ele>
        <time>2012-08-03T20:48:50Z</time>
      </trkpt>
      <trkpt lat="59.4583194" lon="17.8043734">
        <ele>22.2</ele>
        <time>2012-08-03T20:48:53Z</time>
      </trkpt>
      <trkpt lat="59.4583755" lon="17.8043811">
        <ele>21.8</ele>
        <time>2012-08-03T20:48:54Z</time>
      </trkpt>
      <trkpt lat="59.4584622" lon="17.8043671">
        <ele>23</ele>
        <time>2012-08-03T20:48:56Z</time>
      </trkpt>
      <trkpt lat="59.458591" lon="17.8043686">
        <ele>23.2</ele>
        <time>2012-08-03T20:48:59Z</time>
      </trkpt>
      <trkpt lat="59.4588119" lon="17.8043752">
        <ele>21.8</ele>
        <time>2012-08-03T20:49:04Z</time>
      </trkpt>
      <trkpt lat="59.4588453" lon="17.8043742">
        <ele>22.2</ele>
        <time>2012-08-03T20:49:05Z</time>
      </trkpt>
    </trkseg>
  </trk>
</gpx>